Observation data for Colorado City on 07/11/2018      Previous  Date       Current Mesonet Observations  Soil Data  Daily Summary Page  Observations in Plain Language
KCO2 110501Z 12005KT 23/20 A301 RMK A01 T02270196  RH  083%=      5-min Rain = 0
KCO2 110502Z 12005KT 23/20 A301 RMK A01 T02270196  RH  082%=      5-min Rain = 0
KCO2 110503Z 12006KT 23/20 A301 RMK A01 T02280196  RH  082%=      5-min Rain = 0
KCO2 110504Z 11007KT 23/20 A301 RMK A01 T02270196  RH  083%=      5-min Rain = 0
KCO2 110505Z 12007KT 23/20 A301 RMK A01 T02260196  RH  083%=      5-min Rain = 0
KCO2 110506Z 11007KT 23/20 A301 RMK A01 T02260196  RH  083%=      5-min Rain = 0
KCO2 110507Z 11006KT 23/20 A301 RMK A01 T02260196  RH  083%=      5-min Rain = 0
KCO2 110508Z 11007KT 23/20 A301 RMK A01 T02270196  RH  083%=      5-min Rain = 0
KCO2 110509Z 11006KT 23/20 A301 RMK A01 T02280196  RH  083%=      5-min Rain = 0
KCO2 110510Z 11007KT 23/20 A301 RMK A01 T02280196  RH  082%=      5-min Rain = 0
KCO2 110511Z 11007KT 23/20 A301 RMK A01 T02280196  RH  082%=      5-min Rain = 0
KCO2 110512Z 11007KT 23/20 A301 RMK A01 T02280196  RH  082%=      5-min Rain = 0
KCO2 110513Z 11007KT 23/20 A301 RMK A01 T02270196  RH  083%=      5-min Rain = 0
KCO2 110514Z 11007KT 23/20 A301 RMK A01 T02270196  RH  083%=      5-min Rain = 0
KCO2 110515Z 11006KT 23/20 A301 RMK A01 T02260196  RH  083%=      5-min Rain = 0
KCO2 110516Z 11006KT 23/20 A3011 RMK A01 T02260196  RH  083%=      5-min Rain = 0
KCO2 110517Z 11007KT 23/20 A3011 RMK A01 T02260196  RH  083%=      5-min Rain = 0
KCO2 110518Z 11006KT 23/20 A301 RMK A01 T02260196  RH  083%=      5-min Rain = 0
KCO2 110519Z 11006KT 23/20 A3011 RMK A01 T02250196  RH  084%=      5-min Rain = 0
KCO2 110520Z 11006KT 23/20 A3011 RMK A01 T02250196  RH  084%=      5-min Rain = 0
KCO2 110521Z 11007KT 23/20 A3011 RMK A01 T02250196  RH  083%=      5-min Rain = 0
KCO2 110522Z 11007KT 23/20 A3011 RMK A01 T02250196  RH  083%=      5-min Rain = 0
KCO2 110523Z 11006KT 23/20 A3011 RMK A01 T02250196  RH  084%=      5-min Rain = 0
KCO2 110524Z 11006KT 23/20 A3011 RMK A01 T02250197  RH  084%=      5-min Rain = 0
KCO2 110525Z 12006KT 23/20 A3011 RMK A01 T02250196  RH  084%=      5-min Rain = 0
KCO2 110526Z 12006KT 23/20 A3011 RMK A01 T02250196  RH  084%=      5-min Rain = 0
KCO2 110527Z 12006KT 23/20 A3011 RMK A01 T02250196  RH  084%=      5-min Rain = 0
KCO2 110528Z 11006KT 23/20 A3011 RMK A01 T02250196  RH  084%=      5-min Rain = 0
KCO2 110529Z 11006KT 22/20 A3011 RMK A01 T02240196  RH  084%=      5-min Rain = 0
KCO2 110530Z 11006KT 22/20 A3011 RMK A01 T02240196  RH  084%=      5-min Rain = 0
KCO2 110531Z 11005KT 22/20 A3011 RMK A01 T02230196  RH  085%=      5-min Rain = 0
KCO2 110532Z 11005KT 22/20 A3011 RMK A01 T02230196  RH  085%=      5-min Rain = 0
KCO2 110533Z 12005KT 22/20 A3011 RMK A01 T02230196  RH  085%=      5-min Rain = 0
KCO2 110534Z 12005KT 22/20 A301 RMK A01 T02230196  RH  085%=      5-min Rain = 0
KCO2 110535Z 12006KT 22/20 A301 RMK A01 T02220195  RH  085%=      5-min Rain = 0
KCO2 110536Z 12006KT 22/20 A301 RMK A01 T02220196  RH  085%=      5-min Rain = 0
KCO2 110537Z 12006KT 22/20 A301 RMK A01 T02220195  RH  085%=      5-min Rain = 0
KCO2 110538Z 12005KT 22/20 A301 RMK A01 T02210195  RH  085%=      5-min Rain = 0
KCO2 110539Z 12005KT 22/20 A301 RMK A01 T02210195  RH  085%=      5-min Rain = 0
KCO2 110540Z 12006KT 22/20 A301 RMK A01 T02210195  RH  085%=      5-min Rain = 0
KCO2 110541Z 12006KT 22/20 A301 RMK A01 T02200195  RH  086%=      5-min Rain = 0
KCO2 110542Z 13006KT 22/20 A301 RMK A01 T02190195  RH  086%=      5-min Rain = 0
KCO2 110543Z 13006KT 22/20 A301 RMK A01 T02190195  RH  086%=      5-min Rain = 0
KCO2 110544Z 12006KT 22/20 A301 RMK A01 T02190195  RH  086%=      5-min Rain = 0
KCO2 110545Z 12006KT 22/19 A301 RMK A01 T02180194  RH  086%=      5-min Rain = 0
KCO2 110546Z 12006KT 22/20 A301 RMK A01 T02180195  RH  086%=      5-min Rain = 0
KCO2 110547Z 12007KT 22/20 A301 RMK A01 T02180195  RH  087%=      5-min Rain = 0
KCO2 110548Z 12007KT 22/20 A301 RMK A01 T02180195  RH  087%=      5-min Rain = 0
KCO2 110549Z 12007KT 22/20 A301 RMK A01 T02190195  RH  087%=      5-min Rain = 0
KCO2 110550Z 12006KT 22/20 A301 RMK A01 T02200196  RH  086%=      5-min Rain = 0
KCO2 110551Z 12006KT 22/20 A301 RMK A01 T02210196  RH  086%=      5-min Rain = 0
KCO2 110552Z 12006KT 22/20 A301 RMK A01 T02210196  RH  086%=      5-min Rain = 0
KCO2 110553Z 12006KT 22/20 A301 RMK A01 T02220196  RH  085%=      5-min Rain = 0
KCO2 110554Z 12006KT 22/20 A301 RMK A01 T02210196  RH  085%=      5-min Rain = 0
KCO2 110555Z 12006KT 22/20 A301 RMK A01 T02210196  RH  086%=      5-min Rain = 0
KCO2 110556Z 12006KT 22/20 A301 RMK A01 T02210196  RH  086%=      5-min Rain = 0
KCO2 110557Z 12006KT 22/20 A301 RMK A01 T02200196  RH  086%=      5-min Rain = 0
KCO2 110558Z 12006KT 22/20 A301 RMK A01 T02200196  RH  086%=      5-min Rain = 0
KCO2 110559Z 12006KT 22/20 A301 RMK A01 T02200196  RH  086%=      5-min Rain = 0
KCO2 110600Z 12006KT 22/20 A301 RMK A01 T02200196  RH  086%=      5-min Rain = 0
KCO2 110601Z 12006KT 22/20 A301 RMK A01 T02200196  RH  086%=      5-min Rain = 0
KCO2 110602Z 12006KT 22/20 A301 RMK A01 T02200196  RH  086%=      5-min Rain = 0
KCO2 110603Z 12006KT 22/20 A301 RMK A01 T02200195  RH  086%=      5-min Rain = 0
KCO2 110604Z 12006KT 22/20 A301 RMK A01 T02190195  RH  086%=      5-min Rain = 0
KCO2 110605Z 12005KT 22/20 A301 RMK A01 T02190195  RH  086%=      5-min Rain = 0
KCO2 110606Z 12006KT 22/20 A301 RMK A01 T02180195  RH  087%=      5-min Rain = 0
KCO2 110607Z 11006KT 22/20 A301 RMK A01 T02180195  RH  087%=      5-min Rain = 0
KCO2 110608Z 11006KT 22/20 A301 RMK A01 T02180195  RH  087%=      5-min Rain = 0
KCO2 110609Z 11006KT 22/20 A301 RMK A01 T02190196  RH  087%=      5-min Rain = 0
KCO2 110610Z 11006KT 22/20 A301 RMK A01 T02190196  RH  087%=      5-min Rain = 0
KCO2 110611Z 11006KT 22/20 A301 RMK A01 T02190196  RH  086%=      5-min Rain = 0
KCO2 110612Z 11006KT 22/20 A301 RMK A01 T02190195  RH  086%=      5-min Rain = 0
KCO2 110613Z 11006KT 22/20 A301 RMK A01 T02190195  RH  086%=      5-min Rain = 0
KCO2 110614Z 11006KT 22/20 A301 RMK A01 T02200196  RH  086%=      5-min Rain = 0
KCO2 110615Z 11006KT 22/20 A301 RMK A01 T02200196  RH  086%=      5-min Rain = 0
KCO2 110616Z 11006KT 22/20 A301 RMK A01 T02200196  RH  086%=      5-min Rain = 0
KCO2 110617Z 11006KT 22/20 A301 RMK A01 T02200196  RH  086%=      5-min Rain = 0
KCO2 110618Z 11006KT 22/20 A301 RMK A01 T02200195  RH  086%=      5-min Rain = 0
KCO2 110619Z 11006KT 22/20 A301 RMK A01 T02210195  RH  086%=      5-min Rain = 0
KCO2 110620Z 11006KT 22/20 A301 RMK A01 T02210195  RH  085%=      5-min Rain = 0
KCO2 110621Z 11006KT 22/20 A301 RMK A01 T02200195  RH  086%=      5-min Rain = 0
KCO2 110622Z 11006KT 22/20 A301 RMK A01 T02210195  RH  086%=      5-min Rain = 0
KCO2 110623Z 11006KT 22/20 A301 RMK A01 T02200195  RH  086%=      5-min Rain = 0
KCO2 110624Z 11006KT 22/20 A301 RMK A01 T02190195  RH  086%=      5-min Rain = 0
KCO2 110625Z 11006KT 22/19 A301 RMK A01 T02180194  RH  087%=      5-min Rain = 0
KCO2 110626Z 11005KT 22/19 A301 RMK A01 T02170194  RH  087%=      5-min Rain = 0
KCO2 110627Z 11006KT 22/19 A301 RMK A01 T02170194  RH  087%=      5-min Rain = 0
KCO2 110628Z 11006KT 22/19 A301 RMK A01 T02170194  RH  087%=      5-min Rain = 0
KCO2 110629Z 11006KT 22/19 A301 RMK A01 T02160194  RH  087%=      5-min Rain = 0
KCO2 110630Z 12006KT 22/20 A301 RMK A01 T02160195  RH  087%=      5-min Rain = 0
KCO2 110631Z 12006KT 22/20 A301 RMK A01 T02160195  RH  088%=      5-min Rain = 0
KCO2 110632Z 12006KT 22/20 A301 RMK A01 T02170195  RH  087%=      5-min Rain = 0
KCO2 110633Z 12006KT 22/20 A301 RMK A01 T02180195  RH  087%=      5-min Rain = 0
KCO2 110634Z 12006KT 22/20 A301 RMK A01 T02180195  RH  087%=      5-min Rain = 0
KCO2 110635Z 12006KT 22/20 A301 RMK A01 T02190195  RH  086%=      5-min Rain = 0
KCO2 110636Z 12006KT 22/20 A301 RMK A01 T02190195  RH  086%=      5-min Rain = 0
KCO2 110637Z 12006KT 22/20 A301 RMK A01 T02190195  RH  086%=      5-min Rain = 0
KCO2 110638Z 12007KT 22/20 A301 RMK A01 T02190196  RH  086%=      5-min Rain = 0
KCO2 110639Z 12007KT 22/20 A301 RMK A01 T02190195  RH  086%=      5-min Rain = 0
KCO2 110640Z 12007KT 22/20 A301 RMK A01 T02190195  RH  086%=      5-min Rain = 0
KCO2 110641Z 12007KT 22/19 A301 RMK A01 T02190194  RH  086%=      5-min Rain = 0
KCO2 110642Z 12007KT 22/20 A301 RMK A01 T02200195  RH  086%=      5-min Rain = 0
KCO2 110643Z 12007KT 22/20 A301 RMK A01 T02200195  RH  086%=      5-min Rain = 0
KCO2 110644Z 12007KT 22/20 A301 RMK A01 T02200195  RH  086%=      5-min Rain = 0
KCO2 110645Z 12007KT 22/20 A301 RMK A01 T02200195  RH  086%=      5-min Rain = 0
KCO2 110646Z 12007KT 22/20 A301 RMK A01 T02200195  RH  086%=      5-min Rain = 0
KCO2 110647Z 12006KT 22/20 A301 RMK A01 T02190195  RH  086%=      5-min Rain = 0
KCO2 110648Z 12006KT 22/20 A301 RMK A01 T02190195  RH  086%=      5-min Rain = 0
KCO2 110649Z 12006KT 22/19 A301 RMK A01 T02190194  RH  086%=      5-min Rain = 0
KCO2 110650Z 12006KT 22/19 A301 RMK A01 T02190194  RH  086%=      5-min Rain = 0
KCO2 110651Z 12006KT 22/19 A301 RMK A01 T02190194  RH  086%=      5-min Rain = 0
KCO2 110652Z 12007KT 22/19 A301 RMK A01 T02190194  RH  086%=      5-min Rain = 0
KCO2 110653Z 12007KT 22/19 A301 RMK A01 T02180194  RH  086%=      5-min Rain = 0
KCO2 110654Z 12007KT 22/19 A301 RMK A01 T02180194  RH  086%=      5-min Rain = 0
KCO2 110655Z 12007KT 22/19 A301 RMK A01 T02180194  RH  086%=      5-min Rain = 0
KCO2 110656Z 12007KT 22/19 A301 RMK A01 T02180194  RH  086%=      5-min Rain = 0
KCO2 110657Z 13007KT 22/19 A301 RMK A01 T02180194  RH  086%=      5-min Rain = 0
KCO2 110658Z 12006KT 22/19 A301 RMK A01 T02180194  RH  086%=      5-min Rain = 0
KCO2 110659Z 12006KT 22/19 A301 RMK A01 T02170194  RH  086%=      5-min Rain = 0
KCO2 110700Z 12006KT 22/19 A301 RMK A01 T02170194  RH  086%=      5-min Rain = 0
KCO2 110701Z 12006KT 22/19 A301 RMK A01 T02170194  RH  086%=      5-min Rain = 0
KCO2 110702Z 12006KT 22/19 A301 RMK A01 T02170194  RH  086%=      5-min Rain = 0
KCO2 110703Z 12006KT 22/19 A301 RMK A01 T02170193  RH  086%=      5-min Rain = 0
KCO2 110704Z 12006KT 22/19 A301 RMK A01 T02170194  RH  086%=      5-min Rain = 0
KCO2 110705Z 12005KT 22/19 A301 RMK A01 T02160193  RH  087%=      5-min Rain = 0
KCO2 110706Z 12005KT 22/19 A301 RMK A01 T02170193  RH  087%=      5-min Rain = 0
KCO2 110707Z 12005KT 22/19 A301 RMK A01 T02160193  RH  087%=      5-min Rain = 0
KCO2 110708Z 13005KT 22/19 A301 RMK A01 T02160193  RH  087%=      5-min Rain = 0
KCO2 110709Z 13005KT 22/19 A301 RMK A01 T02160193  RH  087%=      5-min Rain = 0
KCO2 110710Z 13006KT 22/19 A301 RMK A01 T02160193  RH  087%=      5-min Rain = 0
KCO2 110711Z 13006KT 22/19 A301 RMK A01 T02150193  RH  087%=      5-min Rain = 0
KCO2 110712Z 13006KT 22/19 A301 RMK A01 T02150193  RH  087%=      5-min Rain = 0
KCO2 110713Z 13005KT 22/19 A301 RMK A01 T02150192  RH  087%=      5-min Rain = 0
KCO2 110714Z 13005KT 21/19 A301 RMK A01 T02140192  RH  087%=      5-min Rain = 0
KCO2 110715Z 13005KT 22/19 A301 RMK A01 T02150192  RH  087%=      5-min Rain = 0
KCO2 110716Z 13005KT 22/19 A301 RMK A01 T02150193  RH  087%=      5-min Rain = 0
KCO2 110717Z 13005KT 22/19 A301 RMK A01 T02150193  RH  087%=      5-min Rain = 0
KCO2 110718Z 13005KT 22/19 A301 RMK A01 T02150192  RH  087%=      5-min Rain = 0
KCO2 110719Z 13005KT 21/19 A301 RMK A01 T02140192  RH  087%=      5-min Rain = 0
KCO2 110720Z 13005KT 21/19 A301 RMK A01 T02140192  RH  087%=      5-min Rain = 0
KCO2 110721Z 13006KT 21/19 A301 RMK A01 T02140192  RH  087%=      5-min Rain = 0
KCO2 110722Z 14006KT 21/19 A301 RMK A01 T02130192  RH  088%=      5-min Rain = 0
KCO2 110723Z 14006KT 21/19 A301 RMK A01 T02130192  RH  088%=      5-min Rain = 0
KCO2 110724Z 13006KT 21/19 A301 RMK A01 T02130192  RH  088%=      5-min Rain = 0
KCO2 110725Z 13005KT 21/19 A301 RMK A01 T02130192  RH  088%=      5-min Rain = 0
KCO2 110726Z 14005KT 21/19 A301 RMK A01 T02140193  RH  088%=      5-min Rain = 0
KCO2 110727Z 14005KT 21/19 A301 RMK A01 T02140193  RH  088%=      5-min Rain = 0
KCO2 110728Z 13005KT 21/19 A301 RMK A01 T02140193  RH  087%=      5-min Rain = 0
KCO2 110729Z 13006KT 21/19 A301 RMK A01 T02140193  RH  087%=      5-min Rain = 0
KCO2 110730Z 14005KT 21/19 A301 RMK A01 T02140192  RH  087%=      5-min Rain = 0
KCO2 110731Z 14005KT 21/19 A301 RMK A01 T02130192  RH  088%=      5-min Rain = 0
KCO2 110732Z 14005KT 21/19 A301 RMK A01 T02130192  RH  088%=      5-min Rain = 0
KCO2 110733Z 14005KT 21/19 A301 RMK A01 T02130192  RH  088%=      5-min Rain = 0
KCO2 110734Z 14006KT 21/19 A301 RMK A01 T02130192  RH  088%=      5-min Rain = 0
KCO2 110735Z 14005KT 21/19 A301 RMK A01 T02130192  RH  088%=      5-min Rain = 0
KCO2 110736Z 14005KT 21/19 A301 RMK A01 T02140192  RH  087%=      5-min Rain = 0
KCO2 110737Z 14005KT 21/19 A301 RMK A01 T02140192  RH  087%=      5-min Rain = 0
KCO2 110738Z 14005KT 21/19 A301 RMK A01 T02140192  RH  087%=      5-min Rain = 0
KCO2 110739Z 14005KT 21/19 A301 RMK A01 T02140192  RH  087%=      5-min Rain = 0
KCO2 110740Z 14004KT 21/19 A301 RMK A01 T02140192  RH  087%=      5-min Rain = 0
KCO2 110741Z 14005KT 21/19 A301 RMK A01 T02140192  RH  087%=      5-min Rain = 0
KCO2 110742Z 14004KT 21/19 A301 RMK A01 T02140192  RH  087%=      5-min Rain = 0
KCO2 110743Z 14005KT 21/19 A301 RMK A01 T02140192  RH  087%=      5-min Rain = 0
KCO2 110744Z 15005KT 21/19 A301 RMK A01 T02140191  RH  087%=      5-min Rain = 0
KCO2 110745Z 15005KT 21/19 A301 RMK A01 T02140190  RH  087%=      5-min Rain = 0
KCO2 110746Z 15004KT 21/19 A301 RMK A01 T02140190  RH  086%=      5-min Rain = 0
KCO2 110747Z 15004KT 21/19 A301 RMK A01 T02140190  RH  086%=      5-min Rain = 0
KCO2 110748Z 15004KT 21/19 A301 RMK A01 T02140190  RH  086%=      5-min Rain = 0
KCO2 110749Z 15004KT 21/19 A301 RMK A01 T02140191  RH  087%=      5-min Rain = 0
KCO2 110750Z 14004KT 21/19 A301 RMK A01 T02130191  RH  087%=      5-min Rain = 0
KCO2 110751Z 14004KT 21/19 A301 RMK A01 T02130191  RH  087%=      5-min Rain = 0
KCO2 110752Z 14004KT 21/19 A301 RMK A01 T02130192  RH  088%=      5-min Rain = 0
KCO2 110753Z 14004KT 21/19 A301 RMK A01 T02120192  RH  088%=      5-min Rain = 0
KCO2 110754Z 14004KT 21/19 A301 RMK A01 T02120192  RH  088%=      5-min Rain = 0
KCO2 110755Z 14004KT 21/19 A301 RMK A01 T02120192  RH  088%=      5-min Rain = 0
KCO2 110756Z 14004KT 21/19 A301 RMK A01 T02110191  RH  088%=      5-min Rain = 0
KCO2 110757Z 13004KT 21/19 A301 RMK A01 T02120192  RH  088%=      5-min Rain = 0
KCO2 110758Z 13003KT 21/19 A301 RMK A01 T02110192  RH  089%=      5-min Rain = 0
KCO2 110759Z 13003KT 21/19 A301 RMK A01 T02110192  RH  089%=      5-min Rain = 0
KCO2 110800Z 13003KT 21/19 A3011 RMK A01 T02110192  RH  089%=      5-min Rain = 0
KCO2 110801Z 13003KT 21/19 A3011 RMK A01 T02120193  RH  089%=      5-min Rain = 0
KCO2 110802Z 13003KT 21/19 A3011 RMK A01 T02120191  RH  088%=      5-min Rain = 0
KCO2 110803Z 13003KT 21/19 A301 RMK A01 T02120190  RH  088%=      5-min Rain = 0
KCO2 110804Z 13003KT 21/19 A301 RMK A01 T02120191  RH  088%=      5-min Rain = 0
KCO2 110805Z 13003KT 21/19 A301 RMK A01 T02120191  RH  088%=      5-min Rain = 0
KCO2 110806Z 12003KT 21/19 A301 RMK A01 T02120191  RH  088%=      5-min Rain = 0
KCO2 110807Z 12003KT 21/19 A301 RMK A01 T02110191  RH  088%=      5-min Rain = 0
KCO2 110808Z 12004KT 21/19 A3011 RMK A01 T02110191  RH  088%=      5-min Rain = 0
KCO2 110809Z 12004KT 21/19 A3011 RMK A01 T02110191  RH  088%=      5-min Rain = 0
KCO2 110810Z 12004KT 21/19 A3011 RMK A01 T02110191  RH  088%=      5-min Rain = 0
KCO2 110811Z 12005KT 21/19 A3011 RMK A01 T02110190  RH  088%=      5-min Rain = 0
KCO2 110812Z 12005KT 21/19 A3011 RMK A01 T02100190  RH  088%=      5-min Rain = 0
KCO2 110813Z 12005KT 21/19 A3011 RMK A01 T02090190  RH  089%=      5-min Rain = 0
KCO2 110814Z 12005KT 21/19 A3011 RMK A01 T02080190  RH  089%=      5-min Rain = 0
KCO2 110815Z 12005KT 21/19 A3011 RMK A01 T02080190  RH  089%=      5-min Rain = 0
KCO2 110816Z 12005KT 21/19 A3011 RMK A01 T02080190  RH  089%=      5-min Rain = 0
KCO2 110817Z 12006KT 21/19 A3011 RMK A01 T02070189  RH  089%=      5-min Rain = 0
KCO2 110818Z 12006KT 21/19 A3011 RMK A01 T02070189  RH  089%=      5-min Rain = 0
KCO2 110819Z 12005KT 21/19 A3011 RMK A01 T02070189  RH  089%=      5-min Rain = 0
KCO2 110820Z 12005KT 21/19 A3011 RMK A01 T02070189  RH  089%=      5-min Rain = 0
KCO2 110821Z 12005KT 21/19 A3011 RMK A01 T02070189  RH  089%=      5-min Rain = 0
KCO2 110822Z 12005KT 21/19 A3011 RMK A01 T02070189  RH  090%=      5-min Rain = 0
KCO2 110823Z 12005KT 21/19 A3011 RMK A01 T02070189  RH  089%=      5-min Rain = 0
KCO2 110824Z 12005KT 21/19 A3011 RMK A01 T02070189  RH  089%=      5-min Rain = 0
KCO2 110825Z 12005KT 21/19 A3011 RMK A01 T02060189  RH  089%=      5-min Rain = 0
KCO2 110826Z 12005KT 21/19 A3011 RMK A01 T02060188  RH  089%=      5-min Rain = 0
KCO2 110827Z 12005KT 21/19 A3011 RMK A01 T02060188  RH  089%=      5-min Rain = 0
KCO2 110828Z 12005KT 21/19 A3011 RMK A01 T02060188  RH  089%=      5-min Rain = 0
KCO2 110829Z 12006KT 21/19 A3011 RMK A01 T02060187  RH  089%=      5-min Rain = 0
KCO2 110830Z 12006KT 21/19 A3011 RMK A01 T02060187  RH  089%=      5-min Rain = 0
KCO2 110831Z 12006KT 21/19 A3011 RMK A01 T02070187  RH  089%=      5-min Rain = 0
KCO2 110832Z 12006KT 21/19 A3011 RMK A01 T02070187  RH  089%=      5-min Rain = 0
KCO2 110833Z 11006KT 21/19 A3011 RMK A01 T02070188  RH  089%=      5-min Rain = 0
KCO2 110834Z 11006KT 21/19 A3011 RMK A01 T02070188  RH  089%=      5-min Rain = 0
KCO2 110835Z 11006KT 21/19 A3011 RMK A01 T02070187  RH  089%=      5-min Rain = 0
KCO2 110836Z 12005KT 21/19 A3011 RMK A01 T02070188  RH  089%=      5-min Rain = 0
KCO2 110837Z 12005KT 21/19 A3011 RMK A01 T02070188  RH  089%=      5-min Rain = 0
KCO2 110838Z 12005KT 21/19 A3011 RMK A01 T02070187  RH  089%=      5-min Rain = 0
KCO2 110839Z 12005KT 21/19 A3011 RMK A01 T02070187  RH  088%=      5-min Rain = 0
KCO2 110840Z 12005KT 21/19 A3011 RMK A01 T02070187  RH  088%=      5-min Rain = 0
KCO2 110841Z 12005KT 21/19 A3011 RMK A01 T02080187  RH  088%=      5-min Rain = 0
KCO2 110842Z 12005KT 21/19 A3011 RMK A01 T02080188  RH  088%=      5-min Rain = 0
KCO2 110843Z 12005KT 21/19 A3011 RMK A01 T02090188  RH  088%=      5-min Rain = 0
KCO2 110844Z 12005KT 21/19 A3011 RMK A01 T02090188  RH  088%=      5-min Rain = 0
KCO2 110845Z 12005KT 21/19 A3011 RMK A01 T02100188  RH  087%=      5-min Rain = 0
KCO2 110846Z 13005KT 21/19 A3011 RMK A01 T02100187  RH  087%=      5-min Rain = 0
KCO2 110847Z 13005KT 21/19 A3011 RMK A01 T02100187  RH  086%=      5-min Rain = 0
KCO2 110848Z 13005KT 21/19 A3011 RMK A01 T02100186  RH  086%=      5-min Rain = 0
KCO2 110849Z 14005KT 21/19 A3011 RMK A01 T02110185  RH  086%=      5-min Rain = 0
KCO2 110850Z 13005KT 21/19 A3011 RMK A01 T02100185  RH  086%=      5-min Rain = 0
KCO2 110851Z 13005KT 21/19 A3011 RMK A01 T02110185  RH  085%=      5-min Rain = 0
KCO2 110852Z 14005KT 21/19 A3011 RMK A01 T02110185  RH  085%=      5-min Rain = 0
KCO2 110853Z 14005KT 21/19 A3011 RMK A01 T02100185  RH  085%=      5-min Rain = 0
KCO2 110854Z 14005KT 21/19 A3011 RMK A01 T02100185  RH  086%=      5-min Rain = 0
KCO2 110855Z 14005KT 21/19 A3011 RMK A01 T02100185  RH  085%=      5-min Rain = 0
KCO2 110856Z 14005KT 21/19 A3011 RMK A01 T02110185  RH  085%=      5-min Rain = 0
KCO2 110857Z 14005KT 21/19 A3011 RMK A01 T02110185  RH  085%=      5-min Rain = 0
KCO2 110858Z 14005KT 21/18 A3011 RMK A01 T02100184  RH  085%=      5-min Rain = 0
KCO2 110859Z 14005KT 21/18 A3011 RMK A01 T02100184  RH  085%=      5-min Rain = 0
KCO2 110900Z 14005KT 21/18 A3011 RMK A01 T02100184  RH  085%=      5-min Rain = 0
KCO2 110901Z 14005KT 21/18 A3011 RMK A01 T02110184  RH  085%=      5-min Rain = 0
KCO2 110902Z 14005KT 21/18 A3011 RMK A01 T02100184  RH  085%=      5-min Rain = 0
KCO2 110903Z 14005KT 21/18 A3011 RMK A01 T02110184  RH  085%=      5-min Rain = 0
KCO2 110904Z 14005KT 21/18 A3011 RMK A01 T02100183  RH  084%=      5-min Rain = 0
KCO2 110905Z 14005KT 21/18 A3011 RMK A01 T02110183  RH  084%=      5-min Rain = 0
KCO2 110906Z 14005KT 21/18 A3011 RMK A01 T02100183  RH  085%=      5-min Rain = 0
KCO2 110907Z 14005KT 21/18 A3011 RMK A01 T02100183  RH  085%=      5-min Rain = 0
KCO2 110908Z 14005KT 21/18 A3011 RMK A01 T02100183  RH  085%=      5-min Rain = 0
KCO2 110909Z 14005KT 21/18 A3011 RMK A01 T02100183  RH  085%=      5-min Rain = 0
KCO2 110910Z 14005KT 21/18 A3011 RMK A01 T02100182  RH  084%=      5-min Rain = 0
KCO2 110911Z 15006KT 21/18 A3011 RMK A01 T02100182  RH  084%=      5-min Rain = 0
KCO2 110912Z 15005KT 21/18 A3011 RMK A01 T02110182  RH  084%=      5-min Rain = 0
KCO2 110913Z 15005KT 21/18 A3011 RMK A01 T02110181  RH  083%=      5-min Rain = 0
KCO2 110914Z 15006KT 21/18 A3011 RMK A01 T02120181  RH  082%=      5-min Rain = 0
KCO2 110915Z 15006KT 21/18 A3011 RMK A01 T02130180  RH  081%=      5-min Rain = 0
KCO2 110916Z 16006KT 21/18 A3011 RMK A01 T02140180  RH  081%=      5-min Rain = 0
KCO2 110917Z 16006KT 21/18 A3011 RMK A01 T02140181  RH  081%=      5-min Rain = 0
KCO2 110918Z 16006KT 21/18 A301 RMK A01 T02140180  RH  081%=      5-min Rain = 0
KCO2 110919Z 16006KT 21/18 A301 RMK A01 T02140181  RH  081%=      5-min Rain = 0
KCO2 110920Z 16005KT 21/18 A301 RMK A01 T02140181  RH  081%=      5-min Rain = 0
KCO2 110921Z 16006KT 21/18 A301 RMK A01 T02130181  RH  082%=      5-min Rain = 0
KCO2 110922Z 16005KT 21/18 A301 RMK A01 T02130181  RH  082%=      5-min Rain = 0
KCO2 110923Z 16005KT 21/18 A301 RMK A01 T02120181  RH  082%=      5-min Rain = 0
KCO2 110924Z 16005KT 21/18 A301 RMK A01 T02120180  RH  082%=      5-min Rain = 0
KCO2 110925Z 16005KT 21/18 A301 RMK A01 T02120181  RH  082%=      5-min Rain = 0
KCO2 110926Z 16005KT 21/18 A301 RMK A01 T02120180  RH  082%=      5-min Rain = 0
KCO2 110927Z 16005KT 21/18 A301 RMK A01 T02110180  RH  082%=      5-min Rain = 0
KCO2 110928Z 15005KT 21/18 A301 RMK A01 T02110180  RH  082%=      5-min Rain = 0
KCO2 110929Z 15005KT 21/18 A301 RMK A01 T02110180  RH  082%=      5-min Rain = 0
KCO2 110930Z 15005KT 21/18 A301 RMK A01 T02110179  RH  082%=      5-min Rain = 0
KCO2 110931Z 15005KT 21/18 A301 RMK A01 T02110179  RH  082%=      5-min Rain = 0
KCO2 110932Z 15005KT 21/18 A301 RMK A01 T02110180  RH  082%=      5-min Rain = 0
KCO2 110933Z 15004KT 21/18 A3011 RMK A01 T02100180  RH  083%=      5-min Rain = 0
KCO2 110934Z 15004KT 21/18 A3011 RMK A01 T02100181  RH  083%=      5-min Rain = 0
KCO2 110935Z 15005KT 21/18 A3011 RMK A01 T02100180  RH  083%=      5-min Rain = 0
KCO2 110936Z 15005KT 21/18 A3011 RMK A01 T02090180  RH  083%=      5-min Rain = 0
KCO2 110937Z 14004KT 21/18 A3011 RMK A01 T02090180  RH  083%=      5-min Rain = 0
KCO2 110938Z 14004KT 21/18 A3011 RMK A01 T02090180  RH  084%=      5-min Rain = 0
KCO2 110939Z 14004KT 21/18 A3011 RMK A01 T02090181  RH  084%=      5-min Rain = 0
KCO2 110940Z 14004KT 21/18 A301 RMK A01 T02090181  RH  084%=      5-min Rain = 0
KCO2 110941Z 14004KT 21/18 A301 RMK A01 T02090182  RH  085%=      5-min Rain = 0
KCO2 110942Z 14004KT 21/18 A301 RMK A01 T02080182  RH  085%=      5-min Rain = 0
KCO2 110943Z 15005KT 21/18 A301 RMK A01 T02090181  RH  084%=      5-min Rain = 0
KCO2 110944Z 15005KT 21/18 A3011 RMK A01 T02090180  RH  083%=      5-min Rain = 0
KCO2 110945Z 15005KT 21/18 A3011 RMK A01 T02090179  RH  083%=      5-min Rain = 0
KCO2 110946Z 15005KT 21/18 A3011 RMK A01 T02100178  RH  082%=      5-min Rain = 0
KCO2 110947Z 16005KT 21/18 A3011 RMK A01 T02110179  RH  082%=      5-min Rain = 0
KCO2 110948Z 16005KT 21/18 A3011 RMK A01 T02110178  RH  081%=      5-min Rain = 0
KCO2 110949Z 16005KT 21/18 A3011 RMK A01 T02120177  RH  081%=      5-min Rain = 0
KCO2 110950Z 16005KT 21/18 A3011 RMK A01 T02130177  RH  080%=      5-min Rain = 0
KCO2 110951Z 16005KT 21/18 A301 RMK A01 T02130177  RH  080%=      5-min Rain = 0
KCO2 110952Z 15004KT 21/18 A301 RMK A01 T02130177  RH  080%=      5-min Rain = 0
KCO2 110953Z 15004KT 21/18 A301 RMK A01 T02130177  RH  080%=      5-min Rain = 0
KCO2 110954Z 16004KT 21/18 A301 RMK A01 T02130178  RH  080%=      5-min Rain = 0
KCO2 110955Z 16004KT 21/18 A301 RMK A01 T02120178  RH  081%=      5-min Rain = 0
KCO2 110956Z 16004KT 21/18 A301 RMK A01 T02120178  RH  081%=      5-min Rain = 0
KCO2 110957Z 16004KT 21/18 A301 RMK A01 T02110178  RH  081%=      5-min Rain = 0
KCO2 110958Z 16003KT 21/18 A301 RMK A01 T02100178  RH  082%=      5-min Rain = 0
KCO2 110959Z 16003KT 21/18 A301 RMK A01 T02110179  RH  082%=      5-min Rain = 0
KCO2 111000Z 16003KT 21/18 A301 RMK A01 T02100179  RH  082%=      5-min Rain = 0
KCO2 111001Z 16003KT 21/18 A301 RMK A01 T02100180  RH  083%=      5-min Rain = 0
KCO2 111002Z 16003KT 21/18 A301 RMK A01 T02110180  RH  082%=      5-min Rain = 0
KCO2 111003Z 16003KT 21/18 A301 RMK A01 T02120179  RH  081%=      5-min Rain = 0
KCO2 111004Z 16003KT 21/18 A301 RMK A01 T02130179  RH  081%=      5-min Rain = 0
KCO2 111005Z 16003KT 21/18 A301 RMK A01 T02140178  RH  080%=      5-min Rain = 0
KCO2 111006Z 16003KT 22/18 A301 RMK A01 T02160178  RH  079%=      5-min Rain = 0
KCO2 111007Z 17004KT 22/18 A301 RMK A01 T02160178  RH  079%=      5-min Rain = 0
KCO2 111008Z 17003KT 22/18 A301 RMK A01 T02170178  RH  078%=      5-min Rain = 0
KCO2 111009Z 17003KT 22/18 A301 RMK A01 T02170177  RH  078%=      5-min Rain = 0
KCO2 111010Z 16003KT 22/18 A301 RMK A01 T02180177  RH  077%=      5-min Rain = 0
KCO2 111011Z 16003KT 22/18 A301 RMK A01 T02180177  RH  077%=      5-min Rain = 0
KCO2 111012Z 16003KT 22/18 A301 RMK A01 T02180177  RH  077%=      5-min Rain = 0
KCO2 111013Z 17003KT 22/18 A301 RMK A01 T02180176  RH  077%=      5-min Rain = 0
KCO2 111014Z 16003KT 22/18 A301 RMK A01 T02180176  RH  077%=      5-min Rain = 0
KCO2 111015Z 16004KT 22/18 A301 RMK A01 T02180176  RH  077%=      5-min Rain = 0
KCO2 111016Z 16003KT 22/18 A301 RMK A01 T02180175  RH  077%=      5-min Rain = 0
KCO2 111017Z 16003KT 22/18 A301 RMK A01 T02180176  RH  077%=      5-min Rain = 0
KCO2 111018Z 16003KT 22/18 A301 RMK A01 T02160176  RH  078%=      5-min Rain = 0
KCO2 111019Z 15003KT 22/18 A301 RMK A01 T02160176  RH  078%=      5-min Rain = 0
KCO2 111020Z 16003KT 22/18 A301 RMK A01 T02150176  RH  079%=      5-min Rain = 0
KCO2 111021Z 15003KT 21/18 A301 RMK A01 T02140176  RH  079%=      5-min Rain = 0
KCO2 111022Z 15003KT 21/18 A301 RMK A01 T02140177  RH  079%=      5-min Rain = 0
KCO2 111023Z 16003KT 21/18 A301 RMK A01 T02130176  RH  080%=      5-min Rain = 0
KCO2 111024Z 15003KT 21/18 A301 RMK A01 T02120176  RH  080%=      5-min Rain = 0
KCO2 111025Z 15003KT 21/18 A301 RMK A01 T02110176  RH  080%=      5-min Rain = 0
KCO2 111026Z 15003KT 21/18 A301 RMK A01 T02100176  RH  081%=      5-min Rain = 0
KCO2 111027Z 15003KT 21/18 A301 RMK A01 T02100176  RH  081%=      5-min Rain = 0
KCO2 111028Z 15003KT 21/18 A301 RMK A01 T02090176  RH  081%=      5-min Rain = 0
KCO2 111029Z 15003KT 21/18 A3011 RMK A01 T02090177  RH  082%=      5-min Rain = 0
KCO2 111030Z 14003KT 21/18 A3011 RMK A01 T02080176  RH  082%=      5-min Rain = 0
KCO2 111031Z 13003KT 21/18 A3011 RMK A01 T02080177  RH  082%=      5-min Rain = 0
KCO2 111032Z 13003KT 21/18 A3011 RMK A01 T02080176  RH  082%=      5-min Rain = 0
KCO2 111033Z 12003KT 21/18 A3011 RMK A01 T02080176  RH  082%=      5-min Rain = 0
KCO2 111034Z 12003KT 21/18 A3011 RMK A01 T02080176  RH  082%=      5-min Rain = 0
KCO2 111035Z 12003KT 21/18 A3011 RMK A01 T02080176  RH  082%=      5-min Rain = 0
KCO2 111036Z 11003KT 21/18 A3011 RMK A01 T02080176  RH  082%=      5-min Rain = 0
KCO2 111037Z 11003KT 21/18 A3011 RMK A01 T02080176  RH  082%=      5-min Rain = 0
KCO2 111038Z 10004KT 21/18 A3011 RMK A01 T02080175  RH  081%=      5-min Rain = 0
KCO2 111039Z 10004KT 21/18 A3011 RMK A01 T02070175  RH  082%=      5-min Rain = 0
KCO2 111040Z 10004KT 21/18 A3011 RMK A01 T02060175  RH  082%=      5-min Rain = 0
KCO2 111041Z 11004KT 20/18 A3011 RMK A01 T02040175  RH  083%=      5-min Rain = 0
KCO2 111042Z 11004KT 20/17 A3011 RMK A01 T02030174  RH  083%=      5-min Rain = 0
KCO2 111043Z 10004KT 20/17 A3011 RMK A01 T02030174  RH  084%=      5-min Rain = 0
KCO2 111044Z 10003KT 20/17 A3011 RMK A01 T02020174  RH  084%=      5-min Rain = 0
KCO2 111045Z 10004KT 20/17 A3011 RMK A01 T02020174  RH  084%=      5-min Rain = 0
KCO2 111046Z 10004KT 20/17 A3011 RMK A01 T02030174  RH  083%=      5-min Rain = 0
KCO2 111047Z 10004KT 20/17 A3011 RMK A01 T02040174  RH  083%=      5-min Rain = 0
KCO2 111048Z 10004KT 20/17 A3011 RMK A01 T02040174  RH  083%=      5-min Rain = 0
KCO2 111049Z 10004KT 21/17 A3011 RMK A01 T02050174  RH  083%=      5-min Rain = 0
KCO2 111050Z 10004KT 21/17 A3011 RMK A01 T02060174  RH  082%=      5-min Rain = 0
KCO2 111051Z 10004KT 21/17 A3011 RMK A01 T02060174  RH  082%=      5-min Rain = 0
KCO2 111052Z 10004KT 21/17 A3011 RMK A01 T02060174  RH  082%=      5-min Rain = 0
KCO2 111053Z 10004KT 21/17 A3011 RMK A01 T02050174  RH  082%=      5-min Rain = 0
KCO2 111054Z 10004KT 20/17 A3011 RMK A01 T02040174  RH  083%=      5-min Rain = 0
KCO2 111055Z 10004KT 20/18 A3011 RMK A01 T02040175  RH  083%=      5-min Rain = 0
KCO2 111056Z 10004KT 20/18 A3011 RMK A01 T02040175  RH  083%=      5-min Rain = 0
KCO2 111057Z 10004KT 20/18 A3011 RMK A01 T02040175  RH  083%=      5-min Rain = 0
KCO2 111058Z 10004KT 20/18 A3011 RMK A01 T02030175  RH  084%=      5-min Rain = 0
KCO2 111059Z 09004KT 20/17 A3011 RMK A01 T02030174  RH  084%=      5-min Rain = 0
KCO2 111100Z 09004KT 20/17 A3011 RMK A01 T02020174  RH  084%=      5-min Rain = 0
KCO2 111101Z 10004KT 20/17 A3011 RMK A01 T02020173  RH  084%=      5-min Rain = 0
KCO2 111102Z 10004KT 20/17 A3011 RMK A01 T02010174  RH  084%=      5-min Rain = 0
KCO2 111103Z 10004KT 20/17 A3011 RMK A01 T02010174  RH  084%=      5-min Rain = 0
KCO2 111104Z 10004KT 20/17 A3011 RMK A01 T02010174  RH  084%=      5-min Rain = 0
KCO2 111105Z 09004KT 20/17 A3011 RMK A01 T02010174  RH  084%=      5-min Rain = 0
KCO2 111106Z 10004KT 20/17 A3011 RMK A01 T02010174  RH  084%=      5-min Rain = 0
KCO2 111107Z 09004KT 20/17 A3011 RMK A01 T02010174  RH  085%=      5-min Rain = 0
KCO2 111108Z 10004KT 20/17 A3011 RMK A01 T02000174  RH  085%=      5-min Rain = 0
KCO2 111109Z 10005KT 20/17 A3011 RMK A01 T02000173  RH  085%=      5-min Rain = 0
KCO2 111110Z 10005KT 20/17 A3011 RMK A01 T01990173  RH  085%=      5-min Rain = 0
KCO2 111111Z 10005KT 20/17 A3011 RMK A01 T01990173  RH  085%=      5-min Rain = 0
KCO2 111112Z 10005KT 20/17 A3011 RMK A01 T01980174  RH  086%=      5-min Rain = 0
KCO2 111113Z 10005KT 20/17 A3011 RMK A01 T01970173  RH  086%=      5-min Rain = 0
KCO2 111114Z 10005KT 20/17 A3011 RMK A01 T01980173  RH  086%=      5-min Rain = 0
KCO2 111115Z 10005KT 20/17 A3011 RMK A01 T01970173  RH  086%=      5-min Rain = 0
KCO2 111116Z 10005KT 20/17 A3011 RMK A01 T01980173  RH  086%=      5-min Rain = 0
KCO2 111117Z 10005KT 20/17 A3011 RMK A01 T01980173  RH  085%=      5-min Rain = 0
KCO2 111118Z 10005KT 20/17 A3011 RMK A01 T01980173  RH  085%=      5-min Rain = 0
KCO2 111119Z 10005KT 20/17 A3011 RMK A01 T01980173  RH  085%=      5-min Rain = 0
KCO2 111120Z 10005KT 20/17 A3011 RMK A01 T01980172  RH  085%=      5-min Rain = 0
KCO2 111121Z 10005KT 20/17 A3011 RMK A01 T01980172  RH  085%=      5-min Rain = 0
KCO2 111122Z 10005KT 20/17 A3011 RMK A01 T01980172  RH  085%=      5-min Rain = 0
KCO2 111123Z 10005KT 20/17 A3011 RMK A01 T01980173  RH  085%=      5-min Rain = 0
KCO2 111124Z 10005KT 20/17 A3011 RMK A01 T01980172  RH  085%=      5-min Rain = 0
KCO2 111125Z 10006KT 20/17 A3011 RMK A01 T01980173  RH  085%=      5-min Rain = 0
KCO2 111126Z 09006KT 20/17 A3011 RMK A01 T01980172  RH  085%=      5-min Rain = 0
KCO2 111127Z 10006KT 20/17 A3011 RMK A01 T01980172  RH  085%=      5-min Rain = 0
KCO2 111128Z 10006KT 20/17 A3011 RMK A01 T01980173  RH  085%=      5-min Rain = 0
KCO2 111129Z 10006KT 20/17 A3011 RMK A01 T01980173  RH  085%=      5-min Rain = 0
KCO2 111130Z 10006KT 20/17 A3011 RMK A01 T01980173  RH  085%=      5-min Rain = 0
KCO2 111131Z 10006KT 20/17 A3011 RMK A01 T01980173  RH  085%=      5-min Rain = 0
KCO2 111132Z 10006KT 20/17 A3011 RMK A01 T01980173  RH  085%=      5-min Rain = 0
KCO2 111133Z 11006KT 20/17 A3011 RMK A01 T01980172  RH  085%=      5-min Rain = 0
KCO2 111134Z 11006KT 20/17 A3011 RMK A01 T01980172  RH  085%=      5-min Rain = 0
KCO2 111135Z 11006KT 20/17 A3011 RMK A01 T01980172  RH  085%=      5-min Rain = 0
KCO2 111136Z 11006KT 20/17 A3011 RMK A01 T01980172  RH  085%=      5-min Rain = 0
KCO2 111137Z 11006KT 20/17 A3011 RMK A01 T01990173  RH  085%=      5-min Rain = 0
KCO2 111138Z 10006KT 20/17 A3011 RMK A01 T01990172  RH  085%=      5-min Rain = 0
KCO2 111139Z 10006KT 20/17 A3011 RMK A01 T01990173  RH  085%=      5-min Rain = 0
KCO2 111140Z 10006KT 20/17 A3011 RMK A01 T01980173  RH  085%=      5-min Rain = 0
KCO2 111141Z 10006KT 20/17 A3011 RMK A01 T01980172  RH  085%=      5-min Rain = 0
KCO2 111142Z 10006KT 20/17 A3011 RMK A01 T01980173  RH  085%=      5-min Rain = 0
KCO2 111143Z 10006KT 20/17 A3011 RMK A01 T01980173  RH  085%=      5-min Rain = 0
KCO2 111144Z 10006KT 20/17 A3012 RMK A01 T01980174  RH  086%=      5-min Rain = 0
KCO2 111145Z 10006KT 20/17 A3012 RMK A01 T01980174  RH  086%=      5-min Rain = 0
KCO2 111146Z 11006KT 20/17 A3012 RMK A01 T01980174  RH  086%=      5-min Rain = 0
KCO2 111147Z 11006KT 20/18 A3012 RMK A01 T01990175  RH  086%=      5-min Rain = 0
KCO2 111148Z 11006KT 20/18 A3012 RMK A01 T01990175  RH  086%=      5-min Rain = 0
KCO2 111149Z 11006KT 20/18 A3012 RMK A01 T01990175  RH  086%=      5-min Rain = 0
KCO2 111150Z 10006KT 20/18 A3012 RMK A01 T01990175  RH  086%=      5-min Rain = 0
KCO2 111151Z 11006KT 20/18 A3012 RMK A01 T01990176  RH  086%=      5-min Rain = 0
KCO2 111152Z 11005KT 20/18 A3012 RMK A01 T01990175  RH  086%=      5-min Rain = 0
KCO2 111153Z 11006KT 20/18 A3012 RMK A01 T01990175  RH  086%=      5-min Rain = 0
KCO2 111154Z 11006KT 20/18 A3012 RMK A01 T01990175  RH  086%=      5-min Rain = 0
KCO2 111155Z 11006KT 20/18 A3012 RMK A01 T01990175  RH  086%=      5-min Rain = 0
KCO2 111156Z 11006KT 20/18 A3012 RMK A01 T01990175  RH  086%=      5-min Rain = 0
KCO2 111157Z 11005KT 20/18 A3012 RMK A01 T01990175  RH  086%=      5-min Rain = 0
KCO2 111158Z 11005KT 20/18 A3012 RMK A01 T01990176  RH  086%=      5-min Rain = 0
KCO2 111159Z 11005KT 20/18 A3012 RMK A01 T01990175  RH  086%=      5-min Rain = 0
KCO2 111200Z 11006KT 20/18 A3012 RMK A01 T02000175  RH  086%=      5-min Rain = 0
KCO2 111201Z 11006KT 20/18 A3012 RMK A01 T02000175  RH  086%=      5-min Rain = 0
KCO2 111202Z 11006KT 20/18 A3012 RMK A01 T02000175  RH  086%=      5-min Rain = 0
KCO2 111203Z 11006KT 20/18 A3012 RMK A01 T02000175  RH  086%=      5-min Rain = 0
KCO2 111204Z 11006KT 20/18 A3012 RMK A01 T02000175  RH  086%=      5-min Rain = 0
KCO2 111205Z 11006KT 20/18 A3012 RMK A01 T02000175  RH  086%=      5-min Rain = 0
KCO2 111206Z 11005KT 20/18 A3012 RMK A01 T02000175  RH  085%=      5-min Rain = 0
KCO2 111207Z 11005KT 20/18 A3012 RMK A01 T02010175  RH  085%=      5-min Rain = 0
KCO2 111208Z 11005KT 20/18 A3012 RMK A01 T02010175  RH  085%=      5-min Rain = 0
KCO2 111209Z 11005KT 20/18 A3012 RMK A01 T02010175  RH  085%=      5-min Rain = 0
KCO2 111210Z 11005KT 20/18 A3012 RMK A01 T02010175  RH  085%=      5-min Rain = 0
KCO2 111211Z 11005KT 20/18 A3012 RMK A01 T02010175  RH  085%=      5-min Rain = 0
KCO2 111212Z 11005KT 20/18 A3012 RMK A01 T02020175  RH  085%=      5-min Rain = 0
KCO2 111213Z 11006KT 20/18 A3012 RMK A01 T02020175  RH  084%=      5-min Rain = 0
KCO2 111214Z 11006KT 20/18 A3012 RMK A01 T02020175  RH  084%=      5-min Rain = 0
KCO2 111215Z 12006KT 20/18 A3012 RMK A01 T02020175  RH  084%=      5-min Rain = 0
KCO2 111216Z 12006KT 20/18 A3012 RMK A01 T02030175  RH  084%=      5-min Rain = 0
KCO2 111217Z 12006KT 20/18 A3012 RMK A01 T02030175  RH  084%=      5-min Rain = 0
KCO2 111218Z 11006KT 20/18 A3012 RMK A01 T02030175  RH  084%=      5-min Rain = 0
KCO2 111219Z 11006KT 20/18 A3012 RMK A01 T02030175  RH  084%=      5-min Rain = 0
KCO2 111220Z 12006KT 20/18 A3012 RMK A01 T02040175  RH  084%=      5-min Rain = 0
KCO2 111221Z 11006KT 20/18 A3012 RMK A01 T02040175  RH  084%=      5-min Rain = 0
KCO2 111222Z 11006KT 21/18 A3012 RMK A01 T02050176  RH  083%=      5-min Rain = 0
KCO2 111223Z 11006KT 21/18 A3013 RMK A01 T02050176  RH  083%=      5-min Rain = 0
KCO2 111224Z 11006KT 21/18 A3013 RMK A01 T02060176  RH  083%=      5-min Rain = 0
KCO2 111225Z 11006KT 21/18 A3013 RMK A01 T02060176  RH  083%=      5-min Rain = 0
KCO2 111226Z 11006KT 21/18 A3013 RMK A01 T02070176  RH  083%=      5-min Rain = 0
KCO2 111227Z 11005KT 21/18 A3013 RMK A01 T02070176  RH  083%=      5-min Rain = 0
KCO2 111228Z 11005KT 21/18 A3013 RMK A01 T02070176  RH  082%=      5-min Rain = 0
KCO2 111229Z 12005KT 21/18 A3013 RMK A01 T02080176  RH  082%=      5-min Rain = 0
KCO2 111230Z 12005KT 21/18 A3013 RMK A01 T02090176  RH  082%=      5-min Rain = 0
KCO2 111231Z 11005KT 21/18 A3013 RMK A01 T02090177  RH  082%=      5-min Rain = 0
KCO2 111232Z 12005KT 21/18 A3013 RMK A01 T02090177  RH  082%=      5-min Rain = 0
KCO2 111233Z 12005KT 21/18 A3013 RMK A01 T02100177  RH  082%=      5-min Rain = 0
KCO2 111234Z 11005KT 21/18 A3013 RMK A01 T02100178  RH  082%=      5-min Rain = 0
KCO2 111235Z 11005KT 21/18 A3013 RMK A01 T02100177  RH  082%=      5-min Rain = 0
KCO2 111236Z 11005KT 21/18 A3013 RMK A01 T02100178  RH  082%=      5-min Rain = 0
KCO2 111237Z 11005KT 21/18 A3013 RMK A01 T02110178  RH  082%=      5-min Rain = 0
KCO2 111238Z 11005KT 21/18 A3013 RMK A01 T02110178  RH  081%=      5-min Rain = 0
KCO2 111239Z 11005KT 21/18 A3013 RMK A01 T02120178  RH  081%=      5-min Rain = 0
KCO2 111240Z 11005KT 21/18 A3013 RMK A01 T02130178  RH  081%=      5-min Rain = 0
KCO2 111241Z 12004KT 21/18 A3013 RMK A01 T02130179  RH  081%=      5-min Rain = 0
KCO2 111242Z 12004KT 21/18 A3013 RMK A01 T02140179  RH  080%=      5-min Rain = 0
KCO2 111243Z 11003KT 22/18 A3013 RMK A01 T02150179  RH  080%=      5-min Rain = 0
KCO2 111244Z 11004KT 22/18 A3013 RMK A01 T02160179  RH  079%=      5-min Rain = 0
KCO2 111245Z 11003KT 22/18 A3013 RMK A01 T02170179  RH  079%=      5-min Rain = 0
KCO2 111246Z 11003KT 22/18 A3013 RMK A01 T02180179  RH  079%=      5-min Rain = 0
KCO2 111247Z 11003KT 22/18 A3013 RMK A01 T02180180  RH  079%=      5-min Rain = 0
KCO2 111248Z 12003KT 22/18 A3013 RMK A01 T02190180  RH  079%=      5-min Rain = 0
KCO2 111249Z 12003KT 22/18 A3013 RMK A01 T02190181  RH  079%=      5-min Rain = 0
KCO2 111250Z 12003KT 22/18 A3013 RMK A01 T02190181  RH  079%=      5-min Rain = 0
KCO2 111251Z 12003KT 22/18 A3013 RMK A01 T02200181  RH  078%=      5-min Rain = 0
KCO2 111252Z 11003KT 22/18 A3013 RMK A01 T02210181  RH  078%=      5-min Rain = 0
KCO2 111253Z 12003KT 22/18 A3013 RMK A01 T02220182  RH  078%=      5-min Rain = 0
KCO2 111254Z 12003KT 22/18 A3013 RMK A01 T02220181  RH  077%=      5-min Rain = 0
KCO2 111255Z 12003KT 22/18 A3013 RMK A01 T02230180  RH  077%=      5-min Rain = 0
KCO2 111256Z 12003KT 22/18 A3013 RMK A01 T02230180  RH  077%=      5-min Rain = 0
KCO2 111257Z 13003KT 22/18 A3013 RMK A01 T02240180  RH  076%=      5-min Rain = 0
KCO2 111258Z 13003KT 23/18 A3013 RMK A01 T02250181  RH  076%=      5-min Rain = 0
KCO2 111259Z 14003KT 23/18 A3013 RMK A01 T02260182  RH  076%=      5-min Rain = 0
KCO2 111300Z 14004KT 23/18 A3013 RMK A01 T02270181  RH  075%=      5-min Rain = 0
KCO2 111301Z 14005KT 23/18 A3013 RMK A01 T02280179  RH  074%=      5-min Rain = 0
KCO2 111302Z 14004KT 23/18 A3013 RMK A01 T02280179  RH  074%=      5-min Rain = 0
KCO2 111303Z 15004KT 23/18 A3013 RMK A01 T02290180  RH  074%=      5-min Rain = 0
KCO2 111304Z 14004KT 23/18 A3013 RMK A01 T02290180  RH  074%=      5-min Rain = 0
KCO2 111305Z 14004KT 23/18 A3013 RMK A01 T02300181  RH  074%=      5-min Rain = 0
KCO2 111306Z 15005KT 23/18 A3013 RMK A01 T02310181  RH  073%=      5-min Rain = 0
KCO2 111307Z 15004KT 23/18 A3013 RMK A01 T02330181  RH  073%=      5-min Rain = 0
KCO2 111308Z 15005KT 23/18 A3013 RMK A01 T02340181  RH  072%=      5-min Rain = 0
KCO2 111309Z 15005KT 24/18 A3013 RMK A01 T02350181  RH  072%=      5-min Rain = 0
KCO2 111310Z 15004KT 24/18 A3013 RMK A01 T02350180  RH  071%=      5-min Rain = 0
KCO2 111311Z 15004KT 24/18 A3013 RMK A01 T02350180  RH  071%=      5-min Rain = 0
KCO2 111312Z 15004KT 24/18 A3013 RMK A01 T02360181  RH  072%=      5-min Rain = 0
KCO2 111313Z 15005KT 24/18 A3013 RMK A01 T02360182  RH  071%=      5-min Rain = 0
KCO2 111314Z 15005KT 24/18 A3013 RMK A01 T02370181  RH  071%=      5-min Rain = 0
KCO2 111315Z 16004KT 24/18 A3013 RMK A01 T02370181  RH  071%=      5-min Rain = 0
KCO2 111316Z 15004KT 24/18 A3014 RMK A01 T02380183  RH  071%=      5-min Rain = 0
KCO2 111317Z 16004KT 24/18 A3014 RMK A01 T02380183  RH  071%=      5-min Rain = 0
KCO2 111318Z 15004KT 24/18 A3014 RMK A01 T02380183  RH  071%=      5-min Rain = 0
KCO2 111319Z 16004KT 24/18 A3014 RMK A01 T02380183  RH  071%=      5-min Rain = 0
KCO2 111320Z 16004KT 24/18 A3013 RMK A01 T02380184  RH  071%=      5-min Rain = 0
KCO2 111321Z 16004KT 24/18 A3013 RMK A01 T02380184  RH  072%=      5-min Rain = 0
KCO2 111322Z 15004KT 24/18 A3013 RMK A01 T02380184  RH  072%=      5-min Rain = 0
KCO2 111323Z 16005KT 24/18 A3013 RMK A01 T02390184  RH  071%=      5-min Rain = 0
KCO2 111324Z 16005KT 24/19 A3013 RMK A01 T02410185  RH  071%=      5-min Rain = 0
KCO2 111325Z 15005KT 24/19 A3013 RMK A01 T02420185  RH  070%=      5-min Rain = 0
KCO2 111326Z 15006KT 24/19 A3013 RMK A01 T02420185  RH  070%=      5-min Rain = 0
KCO2 111327Z 15005KT 24/19 A3013 RMK A01 T02430185  RH  070%=      5-min Rain = 0
KCO2 111328Z 16005KT 24/19 A3013 RMK A01 T02440185  RH  070%=      5-min Rain = 0
KCO2 111329Z 17006KT 24/19 A3013 RMK A01 T02440186  RH  070%=      5-min Rain = 0
KCO2 111330Z 16005KT 25/19 A3013 RMK A01 T02450185  RH  069%=      5-min Rain = 0
KCO2 111331Z 16004KT 25/19 A3013 RMK A01 T02450187  RH  070%=      5-min Rain = 0
KCO2 111332Z 15004KT 25/19 A3013 RMK A01 T02460187  RH  070%=      5-min Rain = 0
KCO2 111333Z 16006KT 25/19 A3013 RMK A01 T02480187  RH  069%=      5-min Rain = 0
KCO2 111334Z 16006KT 25/19 A3013 RMK A01 T02480186  RH  068%=      5-min Rain = 0
KCO2 111335Z 16005KT 25/19 A3013 RMK A01 T02480186  RH  068%=      5-min Rain = 0
KCO2 111336Z 16005KT 25/19 A3013 RMK A01 T02470187  RH  069%=      5-min Rain = 0
KCO2 111337Z 18003KT 25/19 A3013 RMK A01 T02480188  RH  069%=      5-min Rain = 0
KCO2 111338Z 16004KT 25/19 A3013 RMK A01 T02500189  RH  069%=      5-min Rain = 0
KCO2 111339Z 17003KT 25/19 A3013 RMK A01 T02510188  RH  068%=      5-min Rain = 0
KCO2 111340Z 17004KT 25/19 A3014 RMK A01 T02510189  RH  068%=      5-min Rain = 0
KCO2 111341Z 19007KT 25/19 A3014 RMK A01 T02520189  RH  068%=      5-min Rain = 0
KCO2 111342Z 18005KT 25/19 A3014 RMK A01 T02530189  RH  068%=      5-min Rain = 0
KCO2 111343Z 19005KT 25/19 A3014 RMK A01 T02530190  RH  068%=      5-min Rain = 0
KCO2 111344Z 19006KT 26/19 A3014 RMK A01 T02550191  RH  068%=      5-min Rain = 0
KCO2 111345Z 20007KT 26/19 A3014 RMK A01 T02560192  RH  067%=      5-min Rain = 0
KCO2 111346Z 19007KT 26/19 A3014 RMK A01 T02570191  RH  067%=      5-min Rain = 0
KCO2 111347Z 19007KT 26/19 A3014 RMK A01 T02570191  RH  067%=      5-min Rain = 0
KCO2 111348Z 20008KT 26/19 A3014 RMK A01 T02570191  RH  067%=      5-min Rain = 0
KCO2 111349Z 20007KT 26/19 A3014 RMK A01 T02580191  RH  067%=      5-min Rain = 0
KCO2 111350Z 18007KT 26/19 A3014 RMK A01 T02590191  RH  066%=      5-min Rain = 0
KCO2 111351Z 20008KT 26/19 A3014 RMK A01 T02590191  RH  066%=      5-min Rain = 0
KCO2 111352Z 20007KT 26/19 A3014 RMK A01 T02590192  RH  067%=      5-min Rain = 0
KCO2 111353Z 18006KT 26/19 A3014 RMK A01 T02600193  RH  066%=      5-min Rain = 0
KCO2 111354Z 18006KT 26/19 A3014 RMK A01 T02620193  RH  066%=      5-min Rain = 0
KCO2 111355Z 17009KT 26/19 A3014 RMK A01 T02630192  RH  065%=      5-min Rain = 0
KCO2 111356Z 20009KT 26/19 A3014 RMK A01 T02620191  RH  065%=      5-min Rain = 0
KCO2 111357Z 19007KT 26/19 A3014 RMK A01 T02610192  RH  066%=      5-min Rain = 0
KCO2 111358Z 18007KT 26/19 A3014 RMK A01 T02610192  RH  066%=      5-min Rain = 0
KCO2 111359Z 18010KT 26/19 A3014 RMK A01 T02620192  RH  065%=      5-min Rain = 0
KCO2 111400Z 19009KT 26/19 A3014 RMK A01 T02620191  RH  065%=      5-min Rain = 0
KCO2 111401Z 19009KT 26/19 A3014 RMK A01 T02620192  RH  065%=      5-min Rain = 0
KCO2 111402Z 19009KT 26/19 A3014 RMK A01 T02610192  RH  066%=      5-min Rain = 0
KCO2 111403Z 19007KT 26/19 A3014 RMK A01 T02610191  RH  065%=      5-min Rain = 0
KCO2 111404Z 17007KT 26/19 A3014 RMK A01 T02620192  RH  065%=      5-min Rain = 0
KCO2 111405Z 18009KT 26/19 A3014 RMK A01 T02630192  RH  065%=      5-min Rain = 0
KCO2 111406Z 18008KT 26/19 A3014 RMK A01 T02630193  RH  065%=      5-min Rain = 0
KCO2 111407Z 18009KT 27/19 A3014 RMK A01 T02650192  RH  064%=      5-min Rain = 0
KCO2 111408Z 18010KT 27/19 A3014 RMK A01 T02660193  RH  064%=      5-min Rain = 0
KCO2 111409Z 18011KT 27/19 A3014 RMK A01 T02660192  RH  064%=      5-min Rain = 0
KCO2 111410Z 18009KT 27/19 A3014 RMK A01 T02660192  RH  064%=      5-min Rain = 0
KCO2 111411Z 19008KT 27/19 A3014 RMK A01 T02650192  RH  064%=      5-min Rain = 0
KCO2 111412Z 19008KT 26/19 A3014 RMK A01 T02640192  RH  064%=      5-min Rain = 0
KCO2 111413Z 19008KT 27/19 A3014 RMK A01 T02650192  RH  064%=      5-min Rain = 0
KCO2 111414Z 19010KT 27/19 A3014 RMK A01 T02650192  RH  064%=      5-min Rain = 0
KCO2 111415Z 18010KT 27/19 A3014 RMK A01 T02650192  RH  064%=      5-min Rain = 0
KCO2 111416Z 18009KT 27/19 A3014 RMK A01 T02660192  RH  064%=      5-min Rain = 0
KCO2 111417Z 18009KT 27/19 A3014 RMK A01 T02660192  RH  064%=      5-min Rain = 0
KCO2 111418Z 18009KT 27/19 A3014 RMK A01 T02660192  RH  064%=      5-min Rain = 0
KCO2 111419Z 17009KT 27/19 A3014 RMK A01 T02660192  RH  064%=      5-min Rain = 0
KCO2 111420Z 18009KT 27/19 A3014 RMK A01 T02660192  RH  064%=      5-min Rain = 0
KCO2 111421Z 17008KT 27/19 A3014 RMK A01 T02670193  RH  064%=      5-min Rain = 0
KCO2 111422Z 17008KT 27/19 A3014 RMK A01 T02670193  RH  064%=      5-min Rain = 0
KCO2 111423Z 18009KT 27/19 A3014 RMK A01 T02680193  RH  064%=      5-min Rain = 0
KCO2 111424Z 17007KT 27/19 A3014 RMK A01 T02690194  RH  063%=      5-min Rain = 0
KCO2 111425Z 18009KT 27/19 A3014 RMK A01 T02720194  RH  063%=      5-min Rain = 0
KCO2 111426Z 19007KT 27/19 A3014 RMK A01 T02730194  RH  062%=      5-min Rain = 0
KCO2 111427Z 17009KT 27/20 A3014 RMK A01 T02730195  RH  062%=      5-min Rain = 0
KCO2 111428Z 16009KT 28/19 A3014 RMK A01 T02750194  RH  061%=      5-min Rain = 0
KCO2 111429Z 17007KT 27/19 A3014 RMK A01 T02740194  RH  062%=      5-min Rain = 0
KCO2 111430Z 19010KT 27/19 A3014 RMK A01 T02730194  RH  062%=      5-min Rain = 0
KCO2 111431Z 20011KT 27/19 A3014 RMK A01 T02740194  RH  062%=      5-min Rain = 0
KCO2 111432Z 20013KT 27/19 A3014 RMK A01 T02740193  RH  061%=      5-min Rain = 0
KCO2 111433Z 19010KT 27/19 A3014 RMK A01 T02740193  RH  061%=      5-min Rain = 0
KCO2 111434Z 19011KT 27/19 A3014 RMK A01 T02730193  RH  062%=      5-min Rain = 0
KCO2 111435Z 20009KT 27/19 A3014 RMK A01 T02730193  RH  062%=      5-min Rain = 0
KCO2 111436Z 20010KT 27/19 A3014 RMK A01 T02720194  RH  062%=      5-min Rain = 0
KCO2 111437Z 20009KT 27/19 A3014 RMK A01 T02730194  RH  062%=      5-min Rain = 0
KCO2 111438Z 21010KT 27/19 A3014 RMK A01 T02740194  RH  062%=      5-min Rain = 0
KCO2 111439Z 22010KT 27/19 A3014 RMK A01 T02740194  RH  062%=      5-min Rain = 0
KCO2 111440Z 21009KT 28/19 A3014 RMK A01 T02750194  RH  061%=      5-min Rain = 0
KCO2 111441Z 21009KT 28/20 A3014 RMK A01 T02770195  RH  061%=      5-min Rain = 0
KCO2 111442Z 21009KT 28/19 A3014 RMK A01 T02780194  RH  060%=      5-min Rain = 0
KCO2 111443Z 20008KT 28/20 A3014 RMK A01 T02770195  RH  061%=      5-min Rain = 0
KCO2 111444Z 20008KT 28/20 A3014 RMK A01 T02770195  RH  061%=      5-min Rain = 0
KCO2 111445Z 19008KT 28/20 A3014 RMK A01 T02790197  RH  061%=      5-min Rain = 0
KCO2 111446Z 18008KT 28/20 A3014 RMK A01 T02810196  RH  060%=      5-min Rain = 0
KCO2 111447Z 18010KT 28/20 A3014 RMK A01 T02810196  RH  060%=      5-min Rain = 0
KCO2 111448Z 18010KT 28/20 A3014 RMK A01 T02820196  RH  060%=      5-min Rain = 0
KCO2 111449Z 18008KT 28/20 A3014 RMK A01 T02820196  RH  060%=      5-min Rain = 0
KCO2 111450Z 18007KT 28/20 A3014 RMK A01 T02820196  RH  059%=      5-min Rain = 0
KCO2 111451Z 17010KT 28/20 A3014 RMK A01 T02820197  RH  060%=      5-min Rain = 0
KCO2 111452Z 19011KT 28/20 A3014 RMK A01 T02820195  RH  059%=      5-min Rain = 0
KCO2 111453Z 19012KT 28/19 A3014 RMK A01 T02820193  RH  058%=      5-min Rain = 0
KCO2 111454Z 20012KT 28/19 A3014 RMK A01 T02820193  RH  058%=      5-min Rain = 0
KCO2 111455Z 19012KT 28/19 A3014 RMK A01 T02820194  RH  059%=      5-min Rain = 0
KCO2 111456Z 20009KT 28/20 A3014 RMK A01 T02820195  RH  059%=      5-min Rain = 0
KCO2 111457Z 19010KT 28/20 A3014 RMK A01 T02830195  RH  059%=      5-min Rain = 0
KCO2 111458Z 20009KT 29/20 A3014 RMK A01 T02850195  RH  058%=      5-min Rain = 0
KCO2 111459Z 20012KT 29/19 A3014 RMK A01 T02850194  RH  058%=      5-min Rain = 0
KCO2 111500Z 20010KT 28/19 A3014 RMK A01 T02840193  RH  058%=      5-min Rain = 0
KCO2 111501Z 20010KT 28/19 A3014 RMK A01 T02820194  RH  059%=      5-min Rain = 0
KCO2 111502Z 20010KT 28/19 A3014 RMK A01 T02830194  RH  058%=      5-min Rain = 0
KCO2 111503Z 19010KT 28/20 A3014 RMK A01 T02840195  RH  059%=      5-min Rain = 0
KCO2 111504Z 19010KT 29/20 A3014 RMK A01 T02860196  RH  058%=      5-min Rain = 0
KCO2 111505Z 19010KT 29/20 A3014 RMK A01 T02890196  RH  057%=      5-min Rain = 0
KCO2 111506Z 19011KT 29/20 A3014 RMK A01 T02890195  RH  057%=      5-min Rain = 0
KCO2 111507Z 19008KT 29/19 A3014 RMK A01 T02870194  RH  057%=      5-min Rain = 0
KCO2 111508Z 20007KT 29/20 A3014 RMK A01 T02860195  RH  058%=      5-min Rain = 0
KCO2 111509Z 19010KT 29/20 A3014 RMK A01 T02870196  RH  058%=      5-min Rain = 0
KCO2 111510Z 19009KT 29/19 A3014 RMK A01 T02880194  RH  057%=      5-min Rain = 0
KCO2 111511Z 19009KT 29/20 A3014 RMK A01 T02870195  RH  058%=      5-min Rain = 0
KCO2 111512Z 18012KT 29/20 A3014 RMK A01 T02880195  RH  057%=      5-min Rain = 0
KCO2 111513Z 19013KT 29/19 A3014 RMK A01 T02900194  RH  056%=      5-min Rain = 0
KCO2 111514Z 19009KT 29/19 A3014 RMK A01 T02900194  RH  056%=      5-min Rain = 0
KCO2 111515Z 19007KT 29/19 A3014 RMK A01 T02880194  RH  057%=      5-min Rain = 0
KCO2 111516Z 18009KT 29/19 A3014 RMK A01 T02880194  RH  057%=      5-min Rain = 0
KCO2 111517Z 17010KT 29/19 A3014 RMK A01 T02880194  RH  057%=      5-min Rain = 0
KCO2 111518Z 17011KT 29/19 A3014 RMK A01 T02890194  RH  057%=      5-min Rain = 0
KCO2 111519Z 17010KT 29/19 A3014 RMK A01 T02890194  RH  057%=      5-min Rain = 0
KCO2 111520Z 17010KT 29/19 A3014 RMK A01 T02890194  RH  057%=      5-min Rain = 0
KCO2 111521Z 16009KT 29/20 A3014 RMK A01 T02890195  RH  057%=      5-min Rain = 0
KCO2 111522Z 17011KT 29/20 A3014 RMK A01 T02930195  RH  056%=      5-min Rain = 0
KCO2 111523Z 18008KT 29/20 A3014 RMK A01 T02940195  RH  055%=      5-min Rain = 0
KCO2 111524Z 17010KT 30/20 A3014 RMK A01 T02960195  RH  055%=      5-min Rain = 0
KCO2 111525Z 17009KT 30/19 A3014 RMK A01 T02970194  RH  054%=      5-min Rain = 0
KCO2 111526Z 17012KT 30/20 A3014 RMK A01 T02970195  RH  054%=      5-min Rain = 0
KCO2 111527Z 19008KT 30/20 A3014 RMK A01 T02970195  RH  054%=      5-min Rain = 0
KCO2 111528Z 18009KT 30/20 A3014 RMK A01 T02970196  RH  055%=      5-min Rain = 0
KCO2 111529Z 16011KT 30/20 A3014 RMK A01 T02970195  RH  055%=      5-min Rain = 0
KCO2 111530Z 16011KT 30/19 A3014 RMK A01 T02960194  RH  054%=      5-min Rain = 0
KCO2 111531Z 18011KT 30/19 A3014 RMK A01 T02960194  RH  054%=      5-min Rain = 0
KCO2 111532Z 18010KT 30/19 A3014 RMK A01 T02990194  RH  053%=      5-min Rain = 0
KCO2 111533Z 17007KT 30/19 A3014 RMK A01 T02990192  RH  053%=      5-min Rain = 0
KCO2 111534Z 18007KT 30/19 A3014 RMK A01 T02980193  RH  053%=      5-min Rain = 0
KCO2 111535Z 20010KT 30/19 A3014 RMK A01 T02980194  RH  054%=      5-min Rain = 0
KCO2 111536Z 20008KT 30/19 A3014 RMK A01 T02990194  RH  053%=      5-min Rain = 0
KCO2 111537Z 18011KT 30/19 A3014 RMK A01 T03000194  RH  053%=      5-min Rain = 0
KCO2 111538Z 17010KT 30/19 A3014 RMK A01 T03000193  RH  053%=      5-min Rain = 0
KCO2 111539Z 18009KT 30/19 A3014 RMK A01 T02980194  RH  053%=      5-min Rain = 0
KCO2 111540Z 17011KT 30/19 A3014 RMK A01 T02970194  RH  054%=      5-min Rain = 0
KCO2 111541Z 17009KT 30/19 A3014 RMK A01 T02980193  RH  053%=      5-min Rain = 0
KCO2 111542Z 18008KT 30/20 A3014 RMK A01 T02980195  RH  054%=      5-min Rain = 0
KCO2 111543Z 18010KT 30/20 A3014 RMK A01 T03000195  RH  053%=      5-min Rain = 0
KCO2 111544Z 18008KT 30/19 A3014 RMK A01 T03010194  RH  053%=      5-min Rain = 0
KCO2 111545Z 17007KT 30/20 A3014 RMK A01 T03010195  RH  053%=      5-min Rain = 0
KCO2 111546Z 17010KT 30/19 A3014 RMK A01 T03020194  RH  053%=      5-min Rain = 0
KCO2 111547Z 17012KT 30/19 A3014 RMK A01 T03030193  RH  052%=      5-min Rain = 0
KCO2 111548Z 17013KT 30/19 A3014 RMK A01 T03040193  RH  052%=      5-min Rain = 0
KCO2 111549Z 18009KT 30/19 A3014 RMK A01 T03030194  RH  052%=      5-min Rain = 0
KCO2 111550Z 17009KT 30/19 A3014 RMK A01 T03030193  RH  052%=      5-min Rain = 0
KCO2 111551Z 17010KT 31/19 A3014 RMK A01 T03050193  RH  051%=      5-min Rain = 0
KCO2 111552Z 16010KT 31/19 A3014 RMK A01 T03070193  RH  051%=      5-min Rain = 0
KCO2 111553Z 17010KT 31/19 A3014 RMK A01 T03070192  RH  050%=      5-min Rain = 0
KCO2 111554Z 18010KT 31/19 A3014 RMK A01 T03070192  RH  050%=      5-min Rain = 0
KCO2 111555Z 17007KT 31/19 A3014 RMK A01 T03070192  RH  050%=      5-min Rain = 0
KCO2 111556Z 19007KT 31/19 A3014 RMK A01 T03060192  RH  050%=      5-min Rain = 0
KCO2 111557Z 19009KT 30/19 A3014 RMK A01 T03030191  RH  051%=      5-min Rain = 0
KCO2 111558Z 17008KT 31/19 A3014 RMK A01 T03050192  RH  051%=      5-min Rain = 0
KCO2 111559Z 19009KT 31/19 A3014 RMK A01 T03050191  RH  051%=      5-min Rain = 0
KCO2 111600Z 22008KT 31/19 A3014 RMK A01 T03070191  RH  050%=      5-min Rain = 0
KCO2 111601Z 20007KT 31/19 A3014 RMK A01 T03080191  RH  050%=      5-min Rain = 0
KCO2 111602Z 16007KT 31/19 A3014 RMK A01 T03060193  RH  051%=      5-min Rain = 0
KCO2 111603Z 16010KT 31/19 A3014 RMK A01 T03080192  RH  050%=      5-min Rain = 0
KCO2 111604Z 17010KT 31/19 A3014 RMK A01 T03110192  RH  049%=      5-min Rain = 0
KCO2 111605Z 19009KT 31/19 A3014 RMK A01 T03130192  RH  049%=      5-min Rain = 0
KCO2 111606Z 19006KT 31/19 A3014 RMK A01 T03140193  RH  049%=      5-min Rain = 0
KCO2 111607Z 17009KT 32/19 A3014 RMK A01 T03160193  RH  048%=      5-min Rain = 0
KCO2 111608Z 17010KT 32/19 A3014 RMK A01 T03160191  RH  048%=      5-min Rain = 0
KCO2 111609Z 17008KT 32/19 A3014 RMK A01 T03150191  RH  048%=      5-min Rain = 0
KCO2 111610Z 17012KT 32/19 A3014 RMK A01 T03190191  RH  047%=      5-min Rain = 0
KCO2 111611Z 18012KT 32/19 A3014 RMK A01 T03160190  RH  047%=      5-min Rain = 0
KCO2 111612Z 17009KT 31/19 A3014 RMK A01 T03110188  RH  048%=      5-min Rain = 0
KCO2 111613Z 19009KT 31/19 A3014 RMK A01 T03080189  RH  049%=      5-min Rain = 0
KCO2 111614Z 18008KT 31/19 A3014 RMK A01 T03080189  RH  049%=      5-min Rain = 0
KCO2 111615Z 19006KT 31/19 A3014 RMK A01 T03090191  RH  049%=      5-min Rain = 0
KCO2 111616Z 20009KT 31/19 A3014 RMK A01 T03120193  RH  049%=      5-min Rain = 0
KCO2 111617Z 18009G14KT 31/19 A3013 RMK A01 T03130192  RH  049%=      5-min Rain = 0
KCO2 111618Z 19012KT 31/19 A3013 RMK A01 T03140191  RH  048%=      5-min Rain = 0
KCO2 111619Z 19012KT 31/19 A3013 RMK A01 T03140190  RH  048%=      5-min Rain = 0
KCO2 111620Z 19010KT 31/19 A3014 RMK A01 T03130190  RH  048%=      5-min Rain = 0
KCO2 111621Z 18007KT 31/19 A3014 RMK A01 T03110189  RH  048%=      5-min Rain = 0
KCO2 111622Z 18006KT 31/19 A3013 RMK A01 T03130191  RH  048%=      5-min Rain = 0
KCO2 111623Z 20006KT 31/19 A3013 RMK A01 T03140191  RH  048%=      5-min Rain = 0
KCO2 111624Z 18007KT 32/19 A3013 RMK A01 T03160191  RH  048%=      5-min Rain = 0
KCO2 111625Z 16008KT 32/19 A3013 RMK A01 T03160190  RH  047%=      5-min Rain = 0
KCO2 111626Z 16009KT 31/19 A3013 RMK A01 T03140190  RH  048%=      5-min Rain = 0
KCO2 111627Z 17010KT 32/19 A3013 RMK A01 T03150190  RH  047%=      5-min Rain = 0
KCO2 111628Z 18008KT 32/19 A3013 RMK A01 T03160189  RH  047%=      5-min Rain = 0
KCO2 111629Z 18012KT 32/19 A3013 RMK A01 T03160190  RH  047%=      5-min Rain = 0
KCO2 111630Z 18009KT 32/19 A3013 RMK A01 T03160188  RH  047%=      5-min Rain = 0
KCO2 111631Z 20009KT 32/19 A3013 RMK A01 T03150190  RH  048%=      5-min Rain = 0
KCO2 111632Z 18010KT 32/19 A3013 RMK A01 T03150191  RH  048%=      5-min Rain = 0
KCO2 111633Z 18013KT 32/19 A3013 RMK A01 T03160189  RH  047%=      5-min Rain = 0
KCO2 111634Z 16009KT 32/19 A3013 RMK A01 T03170189  RH  047%=      5-min Rain = 0
KCO2 111635Z 16010G15KT 32/19 A3013 RMK A01 T03160188  RH  047%=      5-min Rain = 0
KCO2 111636Z 18012KT 32/19 A3013 RMK A01 T03190186  RH  045%=      5-min Rain = 0
KCO2 111637Z 18013KT 32/19 A3013 RMK A01 T03230187  RH  045%=      5-min Rain = 0
KCO2 111638Z 18008KT 32/19 A3013 RMK A01 T03210187  RH  045%=      5-min Rain = 0
KCO2 111639Z 18008KT 32/19 A3013 RMK A01 T03180187  RH  046%=      5-min Rain = 0
KCO2 111640Z 18007KT 32/19 A3013 RMK A01 T03170185  RH  046%=      5-min Rain = 0
KCO2 111641Z 18009KT 32/19 A3013 RMK A01 T03180185  RH  045%=      5-min Rain = 0
KCO2 111642Z 17009KT 32/18 A3013 RMK A01 T03200182  RH  044%=      5-min Rain = 0
KCO2 111643Z 16008G13KT 32/18 A3013 RMK A01 T03240184  RH  044%=      5-min Rain = 0
KCO2 111644Z 17010KT 33/19 A3013 RMK A01 T03270186  RH  043%=      5-min Rain = 0
KCO2 111645Z 18010KT 33/19 A3013 RMK A01 T03270187  RH  043%=      5-min Rain = 0
KCO2 111646Z 17013KT 32/18 A3013 RMK A01 T03240184  RH  043%=      5-min Rain = 0
KCO2 111647Z 18013KT 32/18 A3013 RMK A01 T03230182  RH  043%=      5-min Rain = 0
KCO2 111648Z 21009KT 32/18 A3013 RMK A01 T03220180  RH  043%=      5-min Rain = 0
KCO2 111649Z 18010KT 32/18 A3013 RMK A01 T03210183  RH  044%=      5-min Rain = 0
KCO2 111650Z 17012KT 32/18 A3013 RMK A01 T03220182  RH  044%=      5-min Rain = 0
KCO2 111651Z 17012KT 32/18 A3013 RMK A01 T03240175  RH  041%=      5-min Rain = 0
KCO2 111652Z 16013KT 32/17 A3012 RMK A01 T03230174  RH  041%=      5-min Rain = 0
KCO2 111653Z 16013KT 32/18 A3012 RMK A01 T03240176  RH  041%=      5-min Rain = 0
KCO2 111654Z 17009KT 32/18 A3013 RMK A01 T03230178  RH  042%=      5-min Rain = 0
KCO2 111655Z 17010KT 32/18 A3012 RMK A01 T03200180  RH  043%=      5-min Rain = 0
KCO2 111656Z 18012KT 32/18 A3012 RMK A01 T03190179  RH  043%=      5-min Rain = 0
KCO2 111657Z 18012KT 32/18 A3012 RMK A01 T03200179  RH  043%=      5-min Rain = 0
KCO2 111658Z 18009KT 32/18 A3012 RMK A01 T03210178  RH  043%=      5-min Rain = 0
KCO2 111659Z 18008KT 32/18 A3012 RMK A01 T03220180  RH  043%=      5-min Rain = 0
KCO2 111700Z 18010KT 32/18 A3012 RMK A01 T03230180  RH  043%=      5-min Rain = 0
KCO2 111701Z 18011KT 33/18 A3012 RMK A01 T03250178  RH  042%=      5-min Rain = 0
KCO2 111702Z 18011KT 33/18 A3013 RMK A01 T03260176  RH  041%=      5-min Rain = 0
KCO2 111703Z 19009G14KT 33/18 A3013 RMK A01 T03270178  RH  041%=      5-min Rain = 0
KCO2 111704Z 19010KT 33/18 A3013 RMK A01 T03290178  RH  041%=      5-min Rain = 0
KCO2 111705Z 18009G15KT 33/18 A3012 RMK A01 T03280175  RH  040%=      5-min Rain = 0
KCO2 111706Z 18010KT 33/18 A3012 RMK A01 T03280177  RH  041%=      5-min Rain = 0
KCO2 111707Z 17009KT 34/18 A3013 RMK A01 T03350180  RH  040%=      5-min Rain = 0
KCO2 111708Z 16010KT 34/18 A3012 RMK A01 T03370176  RH  038%=      5-min Rain = 0
KCO2 111709Z 15009KT 33/18 A3012 RMK A01 T03320176  RH  039%=      5-min Rain = 0
KCO2 111710Z 18011KT 33/18 A3012 RMK A01 T03310178  RH  040%=      5-min Rain = 0
KCO2 111711Z 19008KT 33/18 A3012 RMK A01 T03290178  RH  041%=      5-min Rain = 0
KCO2 111712Z 18006KT 33/18 A3012 RMK A01 T03260179  RH  042%=      5-min Rain = 0
KCO2 111713Z 16005KT 32/18 A3012 RMK A01 T03230181  RH  043%=      5-min Rain = 0
KCO2 111714Z 19008G13KT 33/18 A3012 RMK A01 T03280184  RH  043%=      5-min Rain = 0
KCO2 111715Z 20012KT 33/18 A3012 RMK A01 T03310180  RH  041%=      5-min Rain = 0
KCO2 111716Z 18011KT 33/18 A3012 RMK A01 T03310179  RH  041%=      5-min Rain = 0
KCO2 111717Z 17013KT 33/18 A3012 RMK A01 T03300177  RH  040%=      5-min Rain = 0
KCO2 111718Z 17012KT 33/17 A3012 RMK A01 T03330170  RH  038%=      5-min Rain = 0
KCO2 111719Z 15007KT 33/17 A3012 RMK A01 T03310166  RH  037%=      5-min Rain = 0
KCO2 111720Z 18008KT 33/17 A3012 RMK A01 T03270172  RH  040%=      5-min Rain = 0
KCO2 111721Z 16007KT 33/18 A3012 RMK A01 T03250178  RH  041%=      5-min Rain = 0
KCO2 111722Z 17009KT 33/18 A3012 RMK A01 T03250179  RH  042%=      5-min Rain = 0
KCO2 111723Z 18011KT 33/18 A3012 RMK A01 T03270181  RH  042%=      5-min Rain = 0
KCO2 111724Z 19009KT 33/18 A3012 RMK A01 T03290181  RH  041%=      5-min Rain = 0
KCO2 111725Z 19006KT 33/18 A3012 RMK A01 T03280180  RH  041%=      5-min Rain = 0
KCO2 111726Z 16008KT 32/18 A3012 RMK A01 T03240179  RH  042%=      5-min Rain = 0
KCO2 111727Z 16008KT 32/18 A3012 RMK A01 T03240175  RH  041%=      5-min Rain = 0
KCO2 111728Z 15007KT 32/18 A3012 RMK A01 T03230176  RH  041%=      5-min Rain = 0
KCO2 111729Z 14006KT 32/18 A3012 RMK A01 T03220177  RH  042%=      5-min Rain = 0
KCO2 111730Z 18003KT 33/18 A3012 RMK A01 T03260180  RH  042%=      5-min Rain = 0
KCO2 111731Z 19007KT 33/18 A3012 RMK A01 T03290181  RH  041%=      5-min Rain = 0
KCO2 111732Z 19010KT 33/18 A3012 RMK A01 T03330179  RH  040%=      5-min Rain = 0
KCO2 111733Z 18008KT 33/18 A3012 RMK A01 T03340178  RH  040%=      5-min Rain = 0
KCO2 111734Z 22006KT 34/18 A3012 RMK A01 T03350175  RH  039%=      5-min Rain = 0
KCO2 111735Z 19007KT 33/18 A3012 RMK A01 T03340177  RH  039%=      5-min Rain = 0
KCO2 111736Z 18008G13KT 33/18 A3012 RMK A01 T03300176  RH  040%=      5-min Rain = 0
KCO2 111737Z 17011KT 33/18 A3012 RMK A01 T03310177  RH  040%=      5-min Rain = 0
KCO2 111738Z 15010KT 34/18 A3012 RMK A01 T03360175  RH  038%=      5-min Rain = 0
KCO2 111739Z 15006KT 34/17 A3012 RMK A01 T03360172  RH  038%=      5-min Rain = 0
KCO2 111740Z 20009KT 34/17 A3012 RMK A01 T03350174  RH  038%=      5-min Rain = 0
KCO2 111741Z 20012KT 34/18 A3012 RMK A01 T03350180  RH  040%=      5-min Rain = 0
KCO2 111742Z 20010KT 33/18 A3012 RMK A01 T03330178  RH  040%=      5-min Rain = 0
KCO2 111743Z 22009KT 33/18 A3012 RMK A01 T03280176  RH  041%=      5-min Rain = 0
KCO2 111744Z 23010KT 33/18 A3011 RMK A01 T03270179  RH  041%=      5-min Rain = 0
KCO2 111745Z 24009KT 33/18 A3011 RMK A01 T03300180  RH  041%=      5-min Rain = 0
KCO2 111746Z 21005KT 33/18 A3011 RMK A01 T03300180  RH  041%=      5-min Rain = 0
KCO2 111747Z 18012KT 33/18 A3011 RMK A01 T03290176  RH  040%=      5-min Rain = 0
KCO2 111748Z 18011G16KT 33/17 A3011 RMK A01 T03320172  RH  039%=      5-min Rain = 0
KCO2 111749Z 18013KT 34/18 A3011 RMK A01 T03350175  RH  038%=      5-min Rain = 0
KCO2 111750Z 20013KT 34/18 A3011 RMK A01 T03360175  RH  038%=      5-min Rain = 0
KCO2 111751Z 21008KT 34/18 A3011 RMK A01 T03350175  RH  039%=      5-min Rain = 0
KCO2 111752Z 20009KT 34/17 A3011 RMK A01 T03350174  RH  038%=      5-min Rain = 0
KCO2 111753Z 18009KT 34/18 A3011 RMK A01 T03350176  RH  039%=      5-min Rain = 0
KCO2 111754Z 18010KT 34/18 A3011 RMK A01 T03370179  RH  039%=      5-min Rain = 0
KCO2 111755Z 19007KT 34/18 A3011 RMK A01 T03390180  RH  039%=      5-min Rain = 0
KCO2 111756Z 21009KT 34/18 A3011 RMK A01 T03370178  RH  039%=      5-min Rain = 0
KCO2 111757Z 18010G15KT 34/18 A3011 RMK A01 T03380177  RH  038%=      5-min Rain = 0
KCO2 111758Z 17010KT 34/17 A3011 RMK A01 T03390172  RH  037%=      5-min Rain = 0
KCO2 111759Z 18012KT 34/17 A3011 RMK A01 T03430169  RH  036%=      5-min Rain = 0
KCO2 111800Z 16014KT 35/16 A3011 RMK A01 T03490159  RH  032%=      5-min Rain = 0
KCO2 111801Z 17013KT 35/15 A301 RMK A01 T03480154  RH  031%=      5-min Rain = 0
KCO2 111802Z 19011KT 35/16 A3011 RMK A01 T03460156  RH  032%=      5-min Rain = 0
KCO2 111803Z 17014KT 35/16 A301 RMK A01 T03490157  RH  032%=      5-min Rain = 0
KCO2 111804Z 17014KT 35/16 A301 RMK A01 T03500161  RH  033%=      5-min Rain = 0
KCO2 111805Z 16016KT 35/16 A301 RMK A01 T03470162  RH  033%=      5-min Rain = 0
KCO2 111806Z 16014KT 34/16 A301 RMK A01 T03430160  RH  033%=      5-min Rain = 0
KCO2 111807Z 18013KT 34/16 A301 RMK A01 T03410158  RH  033%=      5-min Rain = 0
KCO2 111808Z 18013KT 34/16 A301 RMK A01 T03400158  RH  034%=      5-min Rain = 0
KCO2 111809Z 18012KT 34/16 A301 RMK A01 T03410161  RH  034%=      5-min Rain = 0
KCO2 111810Z 17012KT 35/16 A301 RMK A01 T03450163  RH  034%=      5-min Rain = 0
KCO2 111811Z 17016KT 35/16 A301 RMK A01 T03470162  RH  033%=      5-min Rain = 0
KCO2 111812Z 17012KT 35/16 A301 RMK A01 T03450164  RH  034%=      5-min Rain = 0
KCO2 111813Z 18010G17KT 34/16 A301 RMK A01 T03440164  RH  034%=      5-min Rain = 0
KCO2 111814Z 19009KT 34/16 A301 RMK A01 T03410160  RH  034%=      5-min Rain = 0
KCO2 111815Z 15012KT 34/16 A301 RMK A01 T03400162  RH  035%=      5-min Rain = 0
KCO2 111816Z 14013KT 34/16 A301 RMK A01 T03420164  RH  035%=      5-min Rain = 0
KCO2 111817Z 16013KT 34/17 A301 RMK A01 T03430165  RH  035%=      5-min Rain = 0
KCO2 111818Z 16014KT 35/17 A301 RMK A01 T03450167  RH  035%=      5-min Rain = 0
KCO2 111819Z 15013KT 35/17 A301 RMK A01 T03470167  RH  034%=      5-min Rain = 0
KCO2 111820Z 15010KT 35/17 A301 RMK A01 T03460167  RH  035%=      5-min Rain = 0
KCO2 111821Z 14010KT 34/17 A301 RMK A01 T03430169  RH  035%=      5-min Rain = 0
KCO2 111822Z 14009KT 34/17 A301 RMK A01 T03420168  RH  035%=      5-min Rain = 0
KCO2 111823Z 13006KT 34/17 A301 RMK A01 T03430168  RH  035%=      5-min Rain = 0
KCO2 111824Z 14010KT 34/17 A301 RMK A01 T03430168  RH  035%=      5-min Rain = 0
KCO2 111825Z 14010KT 34/17 A301 RMK A01 T03430169  RH  036%=      5-min Rain = 0
KCO2 111826Z 16010KT 35/17 A301 RMK A01 T03470168  RH  035%=      5-min Rain = 0
KCO2 111827Z 19015KT 35/17 A301 RMK A01 T03520167  RH  033%=      5-min Rain = 0
KCO2 111828Z 17011G17KT 35/16 A301 RMK A01 T03530164  RH  033%=      5-min Rain = 0
KCO2 111829Z 16014KT 35/16 A301 RMK A01 T03520164  RH  033%=      5-min Rain = 0
KCO2 111830Z 15012KT 35/16 A301 RMK A01 T03480163  RH  033%=      5-min Rain = 0
KCO2 111831Z 16010KT 35/16 A301 RMK A01 T03470163  RH  034%=      5-min Rain = 0
KCO2 111832Z 15008KT 35/17 A301 RMK A01 T03470165  RH  034%=      5-min Rain = 0
KCO2 111833Z 16011KT 35/17 A301 RMK A01 T03480165  RH  034%=      5-min Rain = 0
KCO2 111834Z 17013KT 35/17 A3009 RMK A01 T03500165  RH  033%=      5-min Rain = 0
KCO2 111835Z 18010KT 35/16 A3009 RMK A01 T03490161  RH  033%=      5-min Rain = 0
KCO2 111836Z 17012KT 35/16 A3009 RMK A01 T03490161  RH  033%=      5-min Rain = 0
KCO2 111837Z 17014G19KT 35/16 A3009 RMK A01 T03540161  RH  032%=      5-min Rain = 0
KCO2 111838Z 18013KT 36/16 A3009 RMK A01 T03580162  RH  031%=      5-min Rain = 0
KCO2 111839Z 17011KT 36/16 A3009 RMK A01 T03580160  RH  031%=      5-min Rain = 0
KCO2 111840Z 18009KT 35/16 A3009 RMK A01 T03520157  RH  031%=      5-min Rain = 0
KCO2 111841Z 18010KT 35/16 A3009 RMK A01 T03470158  RH  032%=      5-min Rain = 0
KCO2 111842Z 17012KT 34/16 A3009 RMK A01 T03440161  RH  033%=      5-min Rain = 0
KCO2 111843Z 15011G16KT 35/16 A3009 RMK A01 T03450163  RH  034%=      5-min Rain = 0
KCO2 111844Z 17016KT 35/16 A3009 RMK A01 T03510162  RH  032%=      5-min Rain = 0
KCO2 111845Z 17017KT 36/16 A3009 RMK A01 T03550162  RH  032%=      5-min Rain = 0
KCO2 111846Z 16015KT 35/16 A3009 RMK A01 T03510159  RH  032%=      5-min Rain = 0
KCO2 111847Z 16011KT 35/16 A3009 RMK A01 T03500159  RH  032%=      5-min Rain = 0
KCO2 111848Z 15013KT 35/16 A3009 RMK A01 T03520164  RH  033%=      5-min Rain = 0
KCO2 111849Z 15016KT 36/17 A3009 RMK A01 T03560165  RH  032%=      5-min Rain = 0
KCO2 111850Z 15012KT 35/16 A3009 RMK A01 T03510164  RH  033%=      5-min Rain = 0
KCO2 111851Z 15010KT 35/16 A3009 RMK A01 T03500164  RH  033%=      5-min Rain = 0
KCO2 111852Z 15009KT 35/16 A3009 RMK A01 T03460162  RH  034%=      5-min Rain = 0
KCO2 111853Z 15007KT 34/16 A3009 RMK A01 T03430162  RH  034%=      5-min Rain = 0
KCO2 111854Z 16008KT 34/16 A3009 RMK A01 T03390162  RH  035%=      5-min Rain = 0
KCO2 111855Z 16012KT 34/16 A3009 RMK A01 T03360162  RH  035%=      5-min Rain = 0
KCO2 111856Z 15016KT 34/16 A3008 RMK A01 T03350160  RH  035%=      5-min Rain = 0
KCO2 111857Z 16015KT 34/16 A3008 RMK A01 T03360161  RH  035%=      5-min Rain = 0
KCO2 111858Z 17013KT 35/16 A3008 RMK A01 T03460163  RH  034%=      5-min Rain = 0
KCO2 111859Z 19014KT 35/16 A3008 RMK A01 T03510158  RH  032%=      5-min Rain = 0
KCO2 111900Z 15013KT 35/16 A3008 RMK A01 T03500160  RH  032%=      5-min Rain = 0
KCO2 111901Z 16014KT 35/16 A3008 RMK A01 T03510160  RH  032%=      5-min Rain = 0
KCO2 111902Z 16012KT 35/16 A3008 RMK A01 T03500158  RH  032%=      5-min Rain = 0
KCO2 111903Z 16012KT 35/16 A3008 RMK A01 T03450157  RH  033%=      5-min Rain = 0
KCO2 111904Z 16013KT 34/16 A3008 RMK A01 T03430159  RH  033%=      5-min Rain = 0
KCO2 111905Z 14011KT 35/16 A3008 RMK A01 T03470158  RH  032%=      5-min Rain = 0
KCO2 111906Z 14011G17KT 35/16 A3008 RMK A01 T03510158  RH  032%=      5-min Rain = 0
KCO2 111907Z 15015KT 35/16 A3008 RMK A01 T03520159  RH  032%=      5-min Rain = 0
KCO2 111908Z 15015KT 35/16 A3008 RMK A01 T03500158  RH  032%=      5-min Rain = 0
KCO2 111909Z 16011KT 35/16 A3008 RMK A01 T03480159  RH  032%=      5-min Rain = 0
KCO2 111910Z 16009KT 35/16 A3008 RMK A01 T03470159  RH  033%=      5-min Rain = 0
KCO2 111911Z 16013KT 35/16 A3008 RMK A01 T03450155  RH  032%=      5-min Rain = 0
KCO2 111912Z 15012KT 35/15 A3008 RMK A01 T03460145  RH  030%=      5-min Rain = 0
KCO2 111913Z 15014KT 35/15 A3008 RMK A01 T03520147  RH  029%=      5-min Rain = 0
KCO2 111914Z 15015KT 36/15 A3008 RMK A01 T03560148  RH  029%=      5-min Rain = 0
KCO2 111915Z 16016KT 36/15 A3008 RMK A01 T03590148  RH  028%=      5-min Rain = 0
KCO2 111916Z 17012KT 36/15 A3008 RMK A01 T03580149  RH  029%=      5-min Rain = 0
KCO2 111917Z 18010KT 36/15 A3008 RMK A01 T03550150  RH  029%=      5-min Rain = 0
KCO2 111918Z 18012G17KT 36/15 A3008 RMK A01 T03560152  RH  030%=      5-min Rain = 0
KCO2 111919Z 18013KT 36/16 A3008 RMK A01 T03580155  RH  030%=      5-min Rain = 0
KCO2 111920Z 17011G17KT 36/16 A3007 RMK A01 T03570155  RH  030%=      5-min Rain = 0
KCO2 111921Z 18010KT 36/15 A3007 RMK A01 T03560154  RH  030%=      5-min Rain = 0
KCO2 111922Z 18011G19KT 36/16 A3007 RMK A01 T03550155  RH  030%=      5-min Rain = 0
KCO2 111923Z 18017KT 36/15 A3007 RMK A01 T03580153  RH  030%=      5-min Rain = 0
KCO2 111924Z 17013KT 36/15 A3007 RMK A01 T03590151  RH  029%=      5-min Rain = 0
KCO2 111925Z 17012KT 36/15 A3007 RMK A01 T03570152  RH  030%=      5-min Rain = 0
KCO2 111926Z 17013KT 36/15 A3007 RMK A01 T03570153  RH  030%=      5-min Rain = 0
KCO2 111927Z 18011KT 35/16 A3007 RMK A01 T03540155  RH  031%=      5-min Rain = 0
KCO2 111928Z 16012G17KT 35/16 A3007 RMK A01 T03540156  RH  031%=      5-min Rain = 0
KCO2 111929Z 18012KT 36/16 A3007 RMK A01 T03570155  RH  030%=      5-min Rain = 0
KCO2 111930Z 18011KT 36/15 A3007 RMK A01 T03570154  RH  030%=      5-min Rain = 0
KCO2 111931Z 17012KT 36/16 A3007 RMK A01 T03550155  RH  031%=      5-min Rain = 0
KCO2 111932Z 17008KT 36/16 A3007 RMK A01 T03550155  RH  030%=      5-min Rain = 0
KCO2 111933Z 19008KT 36/16 A3006 RMK A01 T03570158  RH  031%=      5-min Rain = 0
KCO2 111934Z 18014G19KT 36/16 A3006 RMK A01 T03580155  RH  030%=      5-min Rain = 0
KCO2 111935Z 15010KT 36/15 A3007 RMK A01 T03580153  RH  030%=      5-min Rain = 0
KCO2 111936Z 16007KT 35/15 A3006 RMK A01 T03530150  RH  030%=      5-min Rain = 0
KCO2 111937Z 15012KT 35/15 A3006 RMK A01 T03480150  RH  031%=      5-min Rain = 0
KCO2 111938Z 16013KT 35/15 A3006 RMK A01 T03450149  RH  031%=      5-min Rain = 0
KCO2 111939Z 16012KT 34/15 A3006 RMK A01 T03440147  RH  031%=      5-min Rain = 0
KCO2 111940Z 16013KT 34/15 A3006 RMK A01 T03430146  RH  031%=      5-min Rain = 0
KCO2 111941Z 17010G15KT 34/15 A3006 RMK A01 T03430147  RH  031%=      5-min Rain = 0
KCO2 111942Z 15008KT 35/15 A3006 RMK A01 T03490149  RH  030%=      5-min Rain = 0
KCO2 111943Z 15009KT 36/15 A3006 RMK A01 T03550147  RH  029%=      5-min Rain = 0
KCO2 111944Z 17010KT 35/15 A3006 RMK A01 T03540147  RH  029%=      5-min Rain = 0
KCO2 111945Z 17009KT 35/15 A3006 RMK A01 T03540148  RH  029%=      5-min Rain = 0
KCO2 111946Z 17008KT 35/15 A3006 RMK A01 T03540148  RH  029%=      5-min Rain = 0
KCO2 111947Z 17009KT 36/15 A3006 RMK A01 T03550147  RH  029%=      5-min Rain = 0
KCO2 111948Z 16008KT 35/15 A3006 RMK A01 T03540148  RH  029%=      5-min Rain = 0
KCO2 111949Z 12010KT 36/15 A3006 RMK A01 T03570153  RH  030%=      5-min Rain = 0
KCO2 111950Z 18015G21KT 36/15 A3005 RMK A01 T03610152  RH  029%=      5-min Rain = 0
KCO2 111951Z 18015G22KT 37/14 A3006 RMK A01 T03650144  RH  027%=      5-min Rain = 0
KCO2 111952Z 18015KT 37/14 A3006 RMK A01 T03670143  RH  026%=      5-min Rain = 0
KCO2 111953Z 16011G16KT 37/14 A3006 RMK A01 T03650144  RH  027%=      5-min Rain = 0
KCO2 111954Z 17011G16KT 37/15 A3006 RMK A01 T03680146  RH  027%=      5-min Rain = 0
KCO2 111955Z 17008KT 37/15 A3005 RMK A01 T03660145  RH  027%=      5-min Rain = 0
KCO2 111956Z 19014KT 37/15 A3005 RMK A01 T03650145  RH  027%=      5-min Rain = 0
KCO2 111957Z 19011G16KT 36/14 A3005 RMK A01 T03640144  RH  027%=      5-min Rain = 0
KCO2 111958Z 19010KT 36/14 A3005 RMK A01 T03630144  RH  027%=      5-min Rain = 0
KCO2 111959Z 16011G18KT 36/14 A3005 RMK A01 T03640143  RH  027%=      5-min Rain = 0
KCO2 112000Z 17009KT 36/14 A3005 RMK A01 T03640144  RH  027%=      5-min Rain = 0
KCO2 112001Z 15012G17KT 37/15 A3005 RMK A01 T03670147  RH  027%=      5-min Rain = 0
KCO2 112002Z 16011KT 37/15 A3005 RMK A01 T03660149  RH  028%=      5-min Rain = 0
KCO2 112003Z 17011G17KT 37/15 A3005 RMK A01 T03660150  RH  028%=      5-min Rain = 0
KCO2 112004Z 18013G18KT 37/15 A3005 RMK A01 T03680150  RH  027%=      5-min Rain = 0
KCO2 112005Z 18013KT 37/15 A3005 RMK A01 T03660150  RH  028%=      5-min Rain = 0
KCO2 112006Z 16010KT 37/15 A3005 RMK A01 T03660151  RH  028%=      5-min Rain = 0
KCO2 112007Z 17009G15KT 37/15 A3005 RMK A01 T03660151  RH  028%=      5-min Rain = 0
KCO2 112008Z 17009KT 37/15 A3005 RMK A01 T03690152  RH  028%=      5-min Rain = 0
KCO2 112009Z 16007KT 37/15 A3005 RMK A01 T03680151  RH  028%=      5-min Rain = 0
KCO2 112010Z 16009KT 37/15 A3005 RMK A01 T03680152  RH  028%=      5-min Rain = 0
KCO2 112011Z 15013KT 37/15 A3005 RMK A01 T03730154  RH  027%=      5-min Rain = 0
KCO2 112012Z 14010KT 37/15 A3005 RMK A01 T03720152  RH  027%=      5-min Rain = 0
KCO2 112013Z 15009KT 37/15 A3004 RMK A01 T03660151  RH  028%=      5-min Rain = 0
KCO2 112014Z 16010G20KT 36/15 A3004 RMK A01 T03610150  RH  028%=      5-min Rain = 0
KCO2 112015Z 19013G19KT 36/15 A3004 RMK A01 T03640145  RH  027%=      5-min Rain = 0
KCO2 112016Z 18015G20KT 37/14 A3004 RMK A01 T03670143  RH  026%=      5-min Rain = 0
KCO2 112017Z 16014G19KT 37/15 A3004 RMK A01 T03690145  RH  027%=      5-min Rain = 0
KCO2 112018Z 16016KT 37/14 A3004 RMK A01 T03690144  RH  026%=      5-min Rain = 0
KCO2 112019Z 15012KT 37/14 A3004 RMK A01 T03680142  RH  026%=      5-min Rain = 0
KCO2 112020Z 17015KT 37/14 A3004 RMK A01 T03650142  RH  026%=      5-min Rain = 0
KCO2 112021Z 18012KT 37/14 A3004 RMK A01 T03690140  RH  026%=      5-min Rain = 0
KCO2 112022Z 17011KT 37/14 A3004 RMK A01 T03680139  RH  026%=      5-min Rain = 0
KCO2 112023Z 19013KT 37/14 A3004 RMK A01 T03680136  RH  025%=      5-min Rain = 0
KCO2 112024Z 19015KT 37/14 A3004 RMK A01 T03660138  RH  026%=      5-min Rain = 0
KCO2 112025Z 19010KT 36/14 A3004 RMK A01 T03630141  RH  027%=      5-min Rain = 0
KCO2 112026Z 19010G15KT 36/14 A3004 RMK A01 T03630142  RH  027%=      5-min Rain = 0
KCO2 112027Z 19011KT 37/15 A3004 RMK A01 T03650145  RH  027%=      5-min Rain = 0
KCO2 112028Z 14004G9KT 37/14 A3004 RMK A01 T03660144  RH  027%=      5-min Rain = 0
KCO2 112029Z 20007KT 36/14 A3003 RMK A01 T03600143  RH  027%=      5-min Rain = 0
KCO2 112030Z 18007KT 36/14 A3004 RMK A01 T03580144  RH  028%=      5-min Rain = 0
KCO2 112031Z 17015G20KT 36/15 A3004 RMK A01 T03590145  RH  028%=      5-min Rain = 0
KCO2 112032Z 17015KT 36/15 A3004 RMK A01 T03590146  RH  028%=      5-min Rain = 0
KCO2 112033Z 18014KT 36/14 A3004 RMK A01 T03550144  RH  028%=      5-min Rain = 0
KCO2 112034Z 18013KT 35/14 A3004 RMK A01 T03520144  RH  029%=      5-min Rain = 0
KCO2 112035Z 19011KT 35/14 A3004 RMK A01 T03520143  RH  029%=      5-min Rain = 0
KCO2 112036Z 17012KT 36/14 A3003 RMK A01 T03550142  RH  028%=      5-min Rain = 0
KCO2 112037Z 16013KT 36/14 A3003 RMK A01 T03590140  RH  027%=      5-min Rain = 0
KCO2 112038Z 17011KT 36/14 A3003 RMK A01 T03610138  RH  026%=      5-min Rain = 0
KCO2 112039Z 16007KT 36/14 A3003 RMK A01 T03620137  RH  026%=      5-min Rain = 0
KCO2 112040Z 14008KT 36/14 A3003 RMK A01 T03610138  RH  026%=      5-min Rain = 0
KCO2 112041Z 15007KT 36/14 A3003 RMK A01 T03550137  RH  027%=      5-min Rain = 0
KCO2 112042Z 15011KT 35/14 A3003 RMK A01 T03510136  RH  028%=      5-min Rain = 0
KCO2 112043Z 16014KT 35/14 A3003 RMK A01 T03500142  RH  029%=      5-min Rain = 0
KCO2 112044Z 19009KT 35/14 A3003 RMK A01 T03530144  RH  029%=      5-min Rain = 0
KCO2 112045Z 19006KT 35/14 A3003 RMK A01 T03530143  RH  028%=      5-min Rain = 0
KCO2 112046Z 22007KT 35/15 A3003 RMK A01 T03530146  RH  029%=      5-min Rain = 0
KCO2 112047Z 20008KT 35/15 A3003 RMK A01 T03540145  RH  029%=      5-min Rain = 0
KCO2 112048Z 20009KT 36/15 A3003 RMK A01 T03560145  RH  028%=      5-min Rain = 0
KCO2 112049Z 18013KT 36/15 A3003 RMK A01 T03600147  RH  028%=      5-min Rain = 0
KCO2 112050Z 17014KT 36/15 A3002 RMK A01 T03630146  RH  027%=      5-min Rain = 0
KCO2 112051Z 17010KT 36/14 A3003 RMK A01 T03640144  RH  027%=      5-min Rain = 0
KCO2 112052Z 17009KT 36/14 A3002 RMK A01 T03640144  RH  027%=      5-min Rain = 0
KCO2 112053Z 16010KT 37/15 A3002 RMK A01 T03650145  RH  027%=      5-min Rain = 0
KCO2 112054Z 15014KT 37/14 A3002 RMK A01 T03670144  RH  027%=      5-min Rain = 0
KCO2 112055Z 15012KT 37/14 A3002 RMK A01 T03670143  RH  026%=      5-min Rain = 0
KCO2 112056Z 14014KT 37/14 A3002 RMK A01 T03650144  RH  027%=      5-min Rain = 0
KCO2 112057Z 14014KT 37/14 A3002 RMK A01 T03660143  RH  027%=      5-min Rain = 0
KCO2 112058Z 14013G18KT 36/14 A3002 RMK A01 T03640142  RH  027%=      5-min Rain = 0
KCO2 112059Z 14012KT 37/14 A3002 RMK A01 T03650142  RH  027%=      5-min Rain = 0
KCO2 112100Z 14010KT 37/14 A3002 RMK A01 T03660142  RH  026%=      5-min Rain = 0
KCO2 112101Z 16011G16KT 37/14 A3002 RMK A01 T03660143  RH  026%=      5-min Rain = 0
KCO2 112102Z 14012KT 36/14 A3002 RMK A01 T03640143  RH  027%=      5-min Rain = 0
KCO2 112103Z 15012G18KT 36/14 A3002 RMK A01 T03580143  RH  028%=      5-min Rain = 0
KCO2 112104Z 14016KT 35/14 A3002 RMK A01 T03540142  RH  028%=      5-min Rain = 0
KCO2 112105Z 15011KT 35/14 A3002 RMK A01 T03530142  RH  028%=      5-min Rain = 0
KCO2 112106Z 15007KT 36/14 A3002 RMK A01 T03550143  RH  028%=      5-min Rain = 0
KCO2 112107Z 12012KT 36/14 A3002 RMK A01 T03560143  RH  028%=      5-min Rain = 0
KCO2 112108Z 11009KT 36/14 A3002 RMK A01 T03570143  RH  028%=      5-min Rain = 0
KCO2 112109Z 13009KT 36/14 A3002 RMK A01 T03560143  RH  028%=      5-min Rain = 0
KCO2 112110Z 15012KT 35/14 A3002 RMK A01 T03530143  RH  028%=      5-min Rain = 0
KCO2 112111Z 15010KT 35/14 A3002 RMK A01 T03510142  RH  029%=      5-min Rain = 0
KCO2 112112Z 14007KT 35/14 A3002 RMK A01 T03480142  RH  029%=      5-min Rain = 0
KCO2 112113Z 14007KT 35/14 A3002 RMK A01 T03460144  RH  030%=      5-min Rain = 0
KCO2 112114Z 14012KT 35/15 A3002 RMK A01 T03470146  RH  030%=      5-min Rain = 0
KCO2 112115Z 14016KT 35/14 A3001 RMK A01 T03510144  RH  029%=      5-min Rain = 0
KCO2 112116Z 15015KT 36/15 A3001 RMK A01 T03580145  RH  028%=      5-min Rain = 0
KCO2 112117Z 15018KT 36/15 A3001 RMK A01 T03640145  RH  027%=      5-min Rain = 0
KCO2 112118Z 16014KT 36/14 A3002 RMK A01 T03630144  RH  027%=      5-min Rain = 0
KCO2 112119Z 15009KT 36/14 A3002 RMK A01 T03590141  RH  027%=      5-min Rain = 0
KCO2 112120Z 17011KT 36/14 A3001 RMK A01 T03550141  RH  028%=      5-min Rain = 0
KCO2 112121Z 18014KT 35/14 A3001 RMK A01 T03530140  RH  028%=      5-min Rain = 0
KCO2 112122Z 19013KT 35/14 A3001 RMK A01 T03500139  RH  028%=      5-min Rain = 0
KCO2 112123Z 20012KT 35/14 A3001 RMK A01 T03480138  RH  028%=      5-min Rain = 0
KCO2 112124Z 20010KT 35/14 A3001 RMK A01 T03470138  RH  029%=      5-min Rain = 0
KCO2 112125Z 19011KT 35/14 A3001 RMK A01 T03460138  RH  029%=      5-min Rain = 0
KCO2 112126Z 19011KT 35/14 A3001 RMK A01 T03500141  RH  029%=      5-min Rain = 0
KCO2 112127Z 19010KT 36/15 A3001 RMK A01 T03590145  RH  028%=      5-min Rain = 0
KCO2 112128Z 16012KT 37/15 A3001 RMK A01 T03670145  RH  027%=      5-min Rain = 0
KCO2 112129Z 17011KT 37/14 A3001 RMK A01 T03690144  RH  026%=      5-min Rain = 0
KCO2 112130Z 17011KT 37/14 A3001 RMK A01 T03660141  RH  026%=      5-min Rain = 0
KCO2 112131Z 17008KT 36/14 A3001 RMK A01 T03610141  RH  027%=      5-min Rain = 0
KCO2 112132Z 17008KT 36/14 A3001 RMK A01 T03600142  RH  027%=      5-min Rain = 0
KCO2 112133Z 14007KT 36/14 A3001 RMK A01 T03600142  RH  027%=      5-min Rain = 0
KCO2 112134Z 13008KT 36/15 A3001 RMK A01 T03600149  RH  028%=      5-min Rain = 0
KCO2 112135Z 15016KT 36/15 A3001 RMK A01 T03630146  RH  027%=      5-min Rain = 0
KCO2 112136Z 15011KT 36/14 A3001 RMK A01 T03600143  RH  027%=      5-min Rain = 0
KCO2 112137Z 15011KT 36/14 A3001 RMK A01 T03570144  RH  028%=      5-min Rain = 0
KCO2 112138Z 13012KT 36/14 A3001 RMK A01 T03560144  RH  028%=      5-min Rain = 0
KCO2 112139Z 14014KT 35/15 A3001 RMK A01 T03530145  RH  029%=      5-min Rain = 0
KCO2 112140Z 15015KT 36/15 A3001 RMK A01 T03560148  RH  029%=      5-min Rain = 0
KCO2 112141Z 15014KT 36/15 A3001 RMK A01 T03600148  RH  028%=      5-min Rain = 0
KCO2 112142Z 14012KT 36/15 A3001 RMK A01 T03610149  RH  028%=      5-min Rain = 0
KCO2 112143Z 13011KT 36/15 A30 RMK A01 T03590149  RH  029%=      5-min Rain = 0
KCO2 112144Z 14008KT 36/15 A30 RMK A01 T03560148  RH  029%=      5-min Rain = 0
KCO2 112145Z 15008KT 36/15 A30 RMK A01 T03550149  RH  029%=      5-min Rain = 0
KCO2 112146Z 15013G18KT 36/15 A30 RMK A01 T03600150  RH  029%=      5-min Rain = 0
KCO2 112147Z 16013KT 36/15 A30 RMK A01 T03620148  RH  028%=      5-min Rain = 0
KCO2 112148Z 14014KT 36/15 A30 RMK A01 T03560146  RH  029%=      5-min Rain = 0
KCO2 112149Z 14013KT 35/15 A30 RMK A01 T03520146  RH  029%=      5-min Rain = 0
KCO2 112150Z 14009KT 35/15 A30 RMK A01 T03480146  RH  030%=      5-min Rain = 0
KCO2 112151Z 13011KT 35/15 A30 RMK A01 T03480147  RH  030%=      5-min Rain = 0
KCO2 112152Z 15011KT 35/15 A30 RMK A01 T03480146  RH  030%=      5-min Rain = 0
KCO2 112153Z 15014KT 35/15 A30 RMK A01 T03510148  RH  030%=      5-min Rain = 0
KCO2 112154Z 14014KT 36/15 A30 RMK A01 T03580148  RH  029%=      5-min Rain = 0
KCO2 112155Z 14010G15KT 36/15 A30 RMK A01 T03620148  RH  028%=      5-min Rain = 0
KCO2 112156Z 14011KT 37/15 A30 RMK A01 T03650148  RH  027%=      5-min Rain = 0
KCO2 112157Z 13010KT 36/15 A30 RMK A01 T03630146  RH  028%=      5-min Rain = 0
KCO2 112158Z 14012KT 36/15 A30 RMK A01 T03580147  RH  028%=      5-min Rain = 0
KCO2 112159Z 14012KT 36/15 A30 RMK A01 T03550146  RH  029%=      5-min Rain = 0
KCO2 112200Z 13009KT 35/14 A30 RMK A01 T03530144  RH  029%=      5-min Rain = 0
KCO2 112201Z 14010KT 35/15 A30 RMK A01 T03510145  RH  029%=      5-min Rain = 0
KCO2 112202Z 13013KT 35/15 A30 RMK A01 T03500146  RH  029%=      5-min Rain = 0
KCO2 112203Z 13014KT 35/15 A30 RMK A01 T03490146  RH  030%=      5-min Rain = 0
KCO2 112204Z 13010KT 35/15 A30 RMK A01 T03480146  RH  030%=      5-min Rain = 0
KCO2 112205Z 11010KT 35/15 A30 RMK A01 T03480146  RH  030%=      5-min Rain = 0
KCO2 112206Z 13011KT 35/15 A30 RMK A01 T03490147  RH  030%=      5-min Rain = 0
KCO2 112207Z 14014KT 35/15 A2999 RMK A01 T03530148  RH  029%=      5-min Rain = 0
KCO2 112208Z 14014KT 36/15 A2999 RMK A01 T03550147  RH  029%=      5-min Rain = 0
KCO2 112209Z 15015KT 35/15 A2999 RMK A01 T03540146  RH  029%=      5-min Rain = 0
KCO2 112210Z 15015KT 35/15 A2999 RMK A01 T03510146  RH  029%=      5-min Rain = 0
KCO2 112211Z 16012KT 35/15 A2999 RMK A01 T03480146  RH  030%=      5-min Rain = 0
KCO2 112212Z 16014KT 35/15 A2999 RMK A01 T03470146  RH  030%=      5-min Rain = 0
KCO2 112213Z 17012KT 35/15 A2999 RMK A01 T03470146  RH  030%=      5-min Rain = 0
KCO2 112214Z 16011KT 35/15 A2999 RMK A01 T03490147  RH  030%=      5-min Rain = 0
KCO2 112215Z 14011KT 35/15 A2999 RMK A01 T03540147  RH  029%=      5-min Rain = 0
KCO2 112216Z 15011KT 36/15 A2999 RMK A01 T03570148  RH  029%=      5-min Rain = 0
KCO2 112217Z 14011KT 36/15 A2999 RMK A01 T03580148  RH  029%=      5-min Rain = 0
KCO2 112218Z 15009KT 36/15 A2999 RMK A01 T03550147  RH  029%=      5-min Rain = 0
KCO2 112219Z 15011KT 35/15 A2999 RMK A01 T03530147  RH  029%=      5-min Rain = 0
KCO2 112220Z 15011KT 35/15 A2999 RMK A01 T03520146  RH  029%=      5-min Rain = 0
KCO2 112221Z 15011KT 35/15 A2999 RMK A01 T03500146  RH  030%=      5-min Rain = 0
KCO2 112222Z 15015KT 35/15 A2999 RMK A01 T03480145  RH  030%=      5-min Rain = 0
KCO2 112223Z 15013G18KT 35/15 A2999 RMK A01 T03460145  RH  030%=      5-min Rain = 0
KCO2 112224Z 15013KT 35/15 A2999 RMK A01 T03450145  RH  030%=      5-min Rain = 0
KCO2 112225Z 15012KT 35/15 A2999 RMK A01 T03450146  RH  030%=      5-min Rain = 0
KCO2 112226Z 16011KT 35/15 A2999 RMK A01 T03450145  RH  030%=      5-min Rain = 0
KCO2 112227Z 16010KT 35/15 A2999 RMK A01 T03450145  RH  030%=      5-min Rain = 0
KCO2 112228Z 16008KT 34/15 A2999 RMK A01 T03440145  RH  030%=      5-min Rain = 0
KCO2 112229Z 15008KT 34/15 A2999 RMK A01 T03430145  RH  030%=      5-min Rain = 0
KCO2 112230Z 17008KT 34/15 A2999 RMK A01 T03430147  RH  031%=      5-min Rain = 0
KCO2 112231Z 17011KT 34/15 A2999 RMK A01 T03430147  RH  031%=      5-min Rain = 0
KCO2 112232Z 16015KT 34/15 A2999 RMK A01 T03440148  RH  031%=      5-min Rain = 0
KCO2 112233Z 15014KT 35/15 A2999 RMK A01 T03450148  RH  031%=      5-min Rain = 0
KCO2 112234Z 16012KT 35/15 A2999 RMK A01 T03470149  RH  031%=      5-min Rain = 0
KCO2 112235Z 17013KT 35/15 A2999 RMK A01 T03490148  RH  030%=      5-min Rain = 0
KCO2 112236Z 17010KT 35/15 A2999 RMK A01 T03500149  RH  030%=      5-min Rain = 0
KCO2 112237Z 16010KT 36/15 A2999 RMK A01 T03550152  RH  030%=      5-min Rain = 0
KCO2 112238Z 16011KT 36/15 A2999 RMK A01 T03600150  RH  029%=      5-min Rain = 0
KCO2 112239Z 16009KT 36/15 A2999 RMK A01 T03600150  RH  029%=      5-min Rain = 0
KCO2 112240Z 17012KT 36/15 A2999 RMK A01 T03590150  RH  029%=      5-min Rain = 0
KCO2 112241Z 16011KT 36/15 A2999 RMK A01 T03550147  RH  029%=      5-min Rain = 0
KCO2 112242Z 17012KT 35/15 A2999 RMK A01 T03510148  RH  030%=      5-min Rain = 0
KCO2 112243Z 16011KT 35/15 A2999 RMK A01 T03490147  RH  030%=      5-min Rain = 0
KCO2 112244Z 16010KT 35/15 A2999 RMK A01 T03470146  RH  030%=      5-min Rain = 0
KCO2 112245Z 17010KT 35/15 A2999 RMK A01 T03450145  RH  030%=      5-min Rain = 0
KCO2 112246Z 16009KT 35/15 A2998 RMK A01 T03450146  RH  030%=      5-min Rain = 0
KCO2 112247Z 16008KT 34/15 A2998 RMK A01 T03440145  RH  030%=      5-min Rain = 0
KCO2 112248Z 16008KT 34/15 A2998 RMK A01 T03430146  RH  031%=      5-min Rain = 0
KCO2 112249Z 14010KT 34/15 A2998 RMK A01 T03440147  RH  031%=      5-min Rain = 0
KCO2 112250Z 13010KT 34/15 A2998 RMK A01 T03440147  RH  031%=      5-min Rain = 0
KCO2 112251Z 13012KT 35/15 A2998 RMK A01 T03450145  RH  030%=      5-min Rain = 0
KCO2 112252Z 14010KT 35/15 A2998 RMK A01 T03450146  RH  030%=      5-min Rain = 0
KCO2 112253Z 15008KT 35/15 A2998 RMK A01 T03450147  RH  030%=      5-min Rain = 0
KCO2 112254Z 13010KT 35/15 A2998 RMK A01 T03460147  RH  030%=      5-min Rain = 0
KCO2 112255Z 14010KT 35/15 A2998 RMK A01 T03460146  RH  030%=      5-min Rain = 0
KCO2 112256Z 14011KT 35/15 A2998 RMK A01 T03480147  RH  030%=      5-min Rain = 0
KCO2 112257Z 14011KT 35/15 A2998 RMK A01 T03490147  RH  030%=      5-min Rain = 0
KCO2 112258Z 14013KT 35/15 A2998 RMK A01 T03490147  RH  030%=      5-min Rain = 0
KCO2 112259Z 13009KT 35/15 A2998 RMK A01 T03480146  RH  030%=      5-min Rain = 0
KCO2 112300Z 15007KT 35/15 A2998 RMK A01 T03450147  RH  030%=      5-min Rain = 0
KCO2 112301Z 14007KT 35/15 A2998 RMK A01 T03450148  RH  031%=      5-min Rain = 0
KCO2 112302Z 15009KT 35/15 A2998 RMK A01 T03450148  RH  031%=      5-min Rain = 0
KCO2 112303Z 15010KT 35/15 A2998 RMK A01 T03450148  RH  031%=      5-min Rain = 0
KCO2 112304Z 15010KT 34/15 A2998 RMK A01 T03440147  RH  031%=      5-min Rain = 0
KCO2 112305Z 15012KT 34/15 A2998 RMK A01 T03440148  RH  031%=      5-min Rain = 0
KCO2 112306Z 15009KT 34/15 A2998 RMK A01 T03430148  RH  031%=      5-min Rain = 0
KCO2 112307Z 15010KT 34/15 A2998 RMK A01 T03430148  RH  031%=      5-min Rain = 0
KCO2 112308Z 16009KT 34/15 A2998 RMK A01 T03430147  RH  031%=      5-min Rain = 0
KCO2 112309Z 16009KT 34/15 A2998 RMK A01 T03430147  RH  031%=      5-min Rain = 0
KCO2 112310Z 16010KT 34/15 A2998 RMK A01 T03430148  RH  031%=      5-min Rain = 0
KCO2 112311Z 16012KT 34/15 A2998 RMK A01 T03430148  RH  031%=      5-min Rain = 0
KCO2 112312Z 16012KT 34/15 A2998 RMK A01 T03420148  RH  031%=      5-min Rain = 0
KCO2 112313Z 14011KT 34/15 A2998 RMK A01 T03420149  RH  031%=      5-min Rain = 0
KCO2 112314Z 15011KT 34/15 A2998 RMK A01 T03420150  RH  032%=      5-min Rain = 0
KCO2 112315Z 15009KT 34/15 A2998 RMK A01 T03410150  RH  032%=      5-min Rain = 0
KCO2 112316Z 16010KT 34/15 A2998 RMK A01 T03420150  RH  032%=      5-min Rain = 0
KCO2 112317Z 15010KT 34/15 A2998 RMK A01 T03420149  RH  032%=      5-min Rain = 0
KCO2 112318Z 14011KT 34/15 A2998 RMK A01 T03430150  RH  031%=      5-min Rain = 0
KCO2 112319Z 15010KT 34/15 A2998 RMK A01 T03440150  RH  031%=      5-min Rain = 0
KCO2 112320Z 15010KT 35/15 A2998 RMK A01 T03460150  RH  031%=      5-min Rain = 0
KCO2 112321Z 15010KT 35/15 A2998 RMK A01 T03460149  RH  031%=      5-min Rain = 0
KCO2 112322Z 15011KT 35/15 A2998 RMK A01 T03470149  RH  031%=      5-min Rain = 0
KCO2 112323Z 15011KT 35/15 A2998 RMK A01 T03470148  RH  031%=      5-min Rain = 0
KCO2 112324Z 14011KT 35/15 A2998 RMK A01 T03470149  RH  030%=      5-min Rain = 0
KCO2 112325Z 14010KT 35/15 A2998 RMK A01 T03470148  RH  030%=      5-min Rain = 0
KCO2 112326Z 14012KT 35/15 A2998 RMK A01 T03450149  RH  031%=      5-min Rain = 0
KCO2 112327Z 14012KT 34/15 A2998 RMK A01 T03440148  RH  031%=      5-min Rain = 0
KCO2 112328Z 14011KT 34/15 A2998 RMK A01 T03430148  RH  031%=      5-min Rain = 0
KCO2 112329Z 14011KT 34/15 A2998 RMK A01 T03420148  RH  031%=      5-min Rain = 0
KCO2 112330Z 14010KT 34/15 A2998 RMK A01 T03410148  RH  031%=      5-min Rain = 0
KCO2 112331Z 15009KT 34/15 A2998 RMK A01 T03410148  RH  031%=      5-min Rain = 0
KCO2 112332Z 15007KT 34/15 A2998 RMK A01 T03410147  RH  031%=      5-min Rain = 0
KCO2 112333Z 15007KT 34/15 A2997 RMK A01 T03410148  RH  031%=      5-min Rain = 0
KCO2 112334Z 15009KT 34/15 A2997 RMK A01 T03410148  RH  032%=      5-min Rain = 0
KCO2 112335Z 16010KT 34/15 A2997 RMK A01 T03410149  RH  032%=      5-min Rain = 0
KCO2 112336Z 15009KT 34/15 A2997 RMK A01 T03410149  RH  032%=      5-min Rain = 0
KCO2 112337Z 15010KT 34/15 A2997 RMK A01 T03420149  RH  032%=      5-min Rain = 0
KCO2 112338Z 14010KT 34/15 A2997 RMK A01 T03420149  RH  031%=      5-min Rain = 0
KCO2 112339Z 15010KT 34/15 A2997 RMK A01 T03430149  RH  031%=      5-min Rain = 0
KCO2 112340Z 14008KT 34/15 A2997 RMK A01 T03430149  RH  031%=      5-min Rain = 0
KCO2 112341Z 15008KT 34/15 A2997 RMK A01 T03420150  RH  032%=      5-min Rain = 0
KCO2 112342Z 15009KT 34/15 A2997 RMK A01 T03410150  RH  032%=      5-min Rain = 0
KCO2 112343Z 15010KT 34/15 A2997 RMK A01 T03410149  RH  032%=      5-min Rain = 0
KCO2 112344Z 15010KT 34/15 A2997 RMK A01 T03400149  RH  032%=      5-min Rain = 0
KCO2 112345Z 15010KT 34/15 A2997 RMK A01 T03400148  RH  032%=      5-min Rain = 0
KCO2 112346Z 14009KT 34/15 A2997 RMK A01 T03390147  RH  032%=      5-min Rain = 0
KCO2 112347Z 14009KT 34/15 A2997 RMK A01 T03390147  RH  032%=      5-min Rain = 0
KCO2 112348Z 15009KT 34/15 A2997 RMK A01 T03400147  RH  031%=      5-min Rain = 0
KCO2 112349Z 15009KT 34/15 A2997 RMK A01 T03430148  RH  031%=      5-min Rain = 0
KCO2 112350Z 15009KT 35/15 A2997 RMK A01 T03470148  RH  030%=      5-min Rain = 0
KCO2 112351Z 14008KT 35/15 A2997 RMK A01 T03500149  RH  030%=      5-min Rain = 0
KCO2 112352Z 14010KT 35/15 A2998 RMK A01 T03510149  RH  030%=      5-min Rain = 0
KCO2 112353Z 15011KT 35/15 A2998 RMK A01 T03490148  RH  030%=      5-min Rain = 0
KCO2 112354Z 14010KT 35/15 A2998 RMK A01 T03480148  RH  030%=      5-min Rain = 0
KCO2 112355Z 14009KT 35/15 A2998 RMK A01 T03460148  RH  031%=      5-min Rain = 0
KCO2 112356Z 14009KT 35/15 A2998 RMK A01 T03450148  RH  031%=      5-min Rain = 0
KCO2 112357Z 15008KT 34/15 A2998 RMK A01 T03440148  RH  031%=      5-min Rain = 0
KCO2 112358Z 15010KT 34/15 A2998 RMK A01 T03430149  RH  031%=      5-min Rain = 0
KCO2 112359Z 14009KT 34/15 A2998 RMK A01 T03420148  RH  031%=      5-min Rain = 0
KCO2 120000Z 14010KT 34/15 A2998 RMK A01 T03410148  RH  031%=      5-min Rain = 0
KCO2 120001Z 14010KT 34/15 A2998 RMK A01 T03410148  RH  031%=      5-min Rain = 0
KCO2 120002Z 14011KT 34/15 A2998 RMK A01 T03400148  RH  031%=      5-min Rain = 0
KCO2 120003Z 15011KT 34/15 A2998 RMK A01 T03400148  RH  032%=      5-min Rain = 0
KCO2 120004Z 15010KT 34/15 A2998 RMK A01 T03400148  RH  032%=      5-min Rain = 0
KCO2 120005Z 15010KT 34/15 A2998 RMK A01 T03400148  RH  032%=      5-min Rain = 0
KCO2 120006Z 15009KT 34/15 A2998 RMK A01 T03400148  RH  032%=      5-min Rain = 0
KCO2 120007Z 15009KT 34/15 A2998 RMK A01 T03400149  RH  032%=      5-min Rain = 0
KCO2 120008Z 15010KT 34/15 A2998 RMK A01 T03390149  RH  032%=      5-min Rain = 0
KCO2 120009Z 15008KT 34/15 A2998 RMK A01 T03390149  RH  032%=      5-min Rain = 0
KCO2 120010Z 15009KT 34/15 A2998 RMK A01 T03390150  RH  032%=      5-min Rain = 0
KCO2 120011Z 15011KT 34/15 A2998 RMK A01 T03390151  RH  032%=      5-min Rain = 0
KCO2 120012Z 15009KT 34/15 A2998 RMK A01 T03390150  RH  032%=      5-min Rain = 0
KCO2 120013Z 15007KT 34/15 A2998 RMK A01 T03380151  RH  032%=      5-min Rain = 0
KCO2 120014Z 15009KT 34/15 A2998 RMK A01 T03390151  RH  032%=      5-min Rain = 0
KCO2 120015Z 16008KT 34/15 A2998 RMK A01 T03400151  RH  032%=      5-min Rain = 0
KCO2 120016Z 15007KT 34/15 A2998 RMK A01 T03430151  RH  032%=      5-min Rain = 0
KCO2 120017Z 15008KT 35/15 A2998 RMK A01 T03450152  RH  032%=      5-min Rain = 0
KCO2 120018Z 14010KT 35/15 A2998 RMK A01 T03470151  RH  031%=      5-min Rain = 0
KCO2 120019Z 15011KT 35/15 A2998 RMK A01 T03480152  RH  031%=      5-min Rain = 0
KCO2 120020Z 14010KT 35/15 A2998 RMK A01 T03480152  RH  031%=      5-min Rain = 0
KCO2 120021Z 15010KT 35/15 A2998 RMK A01 T03470151  RH  031%=      5-min Rain = 0
KCO2 120022Z 14010KT 35/15 A2998 RMK A01 T03460151  RH  031%=      5-min Rain = 0
KCO2 120023Z 14011KT 35/15 A2998 RMK A01 T03450151  RH  031%=      5-min Rain = 0
KCO2 120024Z 14010KT 35/15 A2998 RMK A01 T03450149  RH  031%=      5-min Rain = 0
KCO2 120025Z 14009KT 35/15 A2998 RMK A01 T03450149  RH  031%=      5-min Rain = 0
KCO2 120026Z 14011KT 35/15 A2998 RMK A01 T03450149  RH  031%=      5-min Rain = 0
KCO2 120027Z 13010KT 35/15 A2998 RMK A01 T03460149  RH  031%=      5-min Rain = 0
KCO2 120028Z 14011KT 35/15 A2998 RMK A01 T03470149  RH  031%=      5-min Rain = 0
KCO2 120029Z 15010KT 35/15 A2998 RMK A01 T03480149  RH  031%=      5-min Rain = 0
KCO2 120030Z 15009KT 35/15 A2998 RMK A01 T03480150  RH  031%=      5-min Rain = 0
KCO2 120031Z 14008KT 35/15 A2998 RMK A01 T03490150  RH  030%=      5-min Rain = 0
KCO2 120032Z 14011KT 35/15 A2998 RMK A01 T03490150  RH  030%=      5-min Rain = 0
KCO2 120033Z 14009KT 35/15 A2998 RMK A01 T03490149  RH  030%=      5-min Rain = 0
KCO2 120034Z 14009KT 35/15 A2998 RMK A01 T03490150  RH  030%=      5-min Rain = 0
KCO2 120035Z 15008KT 35/15 A2998 RMK A01 T03500149  RH  030%=      5-min Rain = 0
KCO2 120036Z 14008KT 35/15 A2998 RMK A01 T03500150  RH  030%=      5-min Rain = 0
KCO2 120037Z 14009KT 35/15 A2998 RMK A01 T03500150  RH  030%=      5-min Rain = 0
KCO2 120038Z 15011KT 35/15 A2998 RMK A01 T03500149  RH  030%=      5-min Rain = 0
KCO2 120039Z 15010KT 35/15 A2998 RMK A01 T03490149  RH  030%=      5-min Rain = 0
KCO2 120040Z 16009KT 35/15 A2998 RMK A01 T03490149  RH  030%=      5-min Rain = 0
KCO2 120041Z 14009KT 35/15 A2998 RMK A01 T03490148  RH  030%=      5-min Rain = 0
KCO2 120042Z 13008KT 35/15 A2998 RMK A01 T03480150  RH  031%=      5-min Rain = 0
KCO2 120043Z 14008KT 35/15 A2998 RMK A01 T03480151  RH  031%=      5-min Rain = 0
KCO2 120044Z 15008KT 35/15 A2998 RMK A01 T03470151  RH  031%=      5-min Rain = 0
KCO2 120045Z 13007KT 35/15 A2998 RMK A01 T03470150  RH  031%=      5-min Rain = 0
KCO2 120046Z 14007KT 35/15 A2998 RMK A01 T03460150  RH  031%=      5-min Rain = 0
KCO2 120047Z 15007KT 34/15 A2998 RMK A01 T03440150  RH  031%=      5-min Rain = 0
KCO2 120048Z 15009KT 34/15 A2998 RMK A01 T03430148  RH  031%=      5-min Rain = 0
KCO2 120049Z 14008KT 34/15 A2998 RMK A01 T03420147  RH  031%=      5-min Rain = 0
KCO2 120050Z 14009KT 34/15 A2998 RMK A01 T03420148  RH  031%=      5-min Rain = 0
KCO2 120051Z 14009KT 34/15 A2998 RMK A01 T03420148  RH  031%=      5-min Rain = 0
KCO2 120052Z 14009KT 34/15 A2998 RMK A01 T03410148  RH  031%=      5-min Rain = 0
KCO2 120053Z 14007KT 34/15 A2998 RMK A01 T03410149  RH  031%=      5-min Rain = 0
KCO2 120054Z 13007KT 34/15 A2998 RMK A01 T03410149  RH  032%=      5-min Rain = 0
KCO2 120055Z 14008KT 34/15 A2998 RMK A01 T03410149  RH  032%=      5-min Rain = 0
KCO2 120056Z 14007KT 34/15 A2998 RMK A01 T03420149  RH  032%=      5-min Rain = 0
KCO2 120057Z 14006KT 34/15 A2998 RMK A01 T03420149  RH  032%=      5-min Rain = 0
KCO2 120058Z 13008KT 34/15 A2998 RMK A01 T03420150  RH  032%=      5-min Rain = 0
KCO2 120059Z 13007KT 34/15 A2998 RMK A01 T03430148  RH  031%=      5-min Rain = 0
KCO2 120100Z 13007KT 34/15 A2998 RMK A01 T03420149  RH  031%=      5-min Rain = 0
KCO2 120101Z 14008KT 34/15 A2998 RMK A01 T03410149  RH  032%=      5-min Rain = 0
KCO2 120102Z 14007KT 34/15 A2998 RMK A01 T03410149  RH  032%=      5-min Rain = 0
KCO2 120103Z 14007KT 34/15 A2998 RMK A01 T03420149  RH  032%=      5-min Rain = 0
KCO2 120104Z 13008KT 34/15 A2998 RMK A01 T03420149  RH  031%=      5-min Rain = 0
KCO2 120105Z 14006KT 34/15 A2998 RMK A01 T03420149  RH  031%=      5-min Rain = 0
KCO2 120106Z 14008KT 34/15 A2998 RMK A01 T03420150  RH  032%=      5-min Rain = 0
KCO2 120107Z 14007KT 34/15 A2998 RMK A01 T03420150  RH  032%=      5-min Rain = 0
KCO2 120108Z 14006KT 34/15 A2998 RMK A01 T03420150  RH  032%=      5-min Rain = 0
KCO2 120109Z 14007KT 34/15 A2998 RMK A01 T03420150  RH  032%=      5-min Rain = 0
KCO2 120110Z 14007KT 34/15 A2998 RMK A01 T03410149  RH  032%=      5-min Rain = 0
KCO2 120111Z 14008KT 34/15 A2998 RMK A01 T03410150  RH  032%=      5-min Rain = 0
KCO2 120112Z 14007KT 34/15 A2998 RMK A01 T03410150  RH  032%=      5-min Rain = 0
KCO2 120113Z 14008KT 34/15 A2998 RMK A01 T03410150  RH  032%=      5-min Rain = 0
KCO2 120114Z 14007KT 34/15 A2998 RMK A01 T03410149  RH  032%=      5-min Rain = 0
KCO2 120115Z 14007KT 34/15 A2999 RMK A01 T03400150  RH  032%=      5-min Rain = 0
KCO2 120116Z 15007KT 34/15 A2998 RMK A01 T03400151  RH  032%=      5-min Rain = 0
KCO2 120117Z 14007KT 34/15 A2999 RMK A01 T03400150  RH  032%=      5-min Rain = 0
KCO2 120118Z 14008KT 34/15 A2999 RMK A01 T03400150  RH  032%=      5-min Rain = 0
KCO2 120119Z 14007KT 34/15 A2999 RMK A01 T03390150  RH  032%=      5-min Rain = 0
KCO2 120120Z 14007KT 34/15 A2999 RMK A01 T03390151  RH  032%=      5-min Rain = 0
KCO2 120121Z 14007KT 34/15 A2999 RMK A01 T03390150  RH  032%=      5-min Rain = 0
KCO2 120122Z 14005KT 34/15 A2999 RMK A01 T03390150  RH  032%=      5-min Rain = 0
KCO2 120123Z 14006KT 34/15 A2999 RMK A01 T03380150  RH  032%=      5-min Rain = 0
KCO2 120124Z 14006KT 34/15 A2999 RMK A01 T03380150  RH  032%=      5-min Rain = 0
KCO2 120125Z 15007KT 34/15 A2999 RMK A01 T03380149  RH  032%=      5-min Rain = 0
KCO2 120126Z 14006KT 34/15 A2999 RMK A01 T03380150  RH  032%=      5-min Rain = 0
KCO2 120127Z 14005KT 34/15 A2999 RMK A01 T03370151  RH  033%=      5-min Rain = 0
KCO2 120128Z 14006KT 34/15 A2999 RMK A01 T03360151  RH  033%=      5-min Rain = 0
KCO2 120129Z 14007KT 34/15 A2999 RMK A01 T03360150  RH  033%=      5-min Rain = 0
KCO2 120130Z 15006KT 34/15 A2999 RMK A01 T03350149  RH  033%=      5-min Rain = 0
KCO2 120131Z 14005KT 34/15 A2999 RMK A01 T03350150  RH  033%=      5-min Rain = 0
KCO2 120132Z 14006KT 33/15 A2999 RMK A01 T03340150  RH  033%=      5-min Rain = 0
KCO2 120133Z 14006KT 33/15 A2999 RMK A01 T03330149  RH  033%=      5-min Rain = 0
KCO2 120134Z 14006KT 33/15 A2999 RMK A01 T03330150  RH  033%=      5-min Rain = 0
KCO2 120135Z 14006KT 33/15 A2999 RMK A01 T03320150  RH  033%=      5-min Rain = 0
KCO2 120136Z 14005KT 33/15 A2999 RMK A01 T03320149  RH  033%=      5-min Rain = 0
KCO2 120137Z 14005KT 33/15 A2999 RMK A01 T03310149  RH  034%=      5-min Rain = 0
KCO2 120138Z 14005KT 33/15 A2999 RMK A01 T03300150  RH  034%=      5-min Rain = 0
KCO2 120139Z 14006KT 33/15 A2999 RMK A01 T03300150  RH  034%=      5-min Rain = 0
KCO2 120140Z 14006KT 33/15 A2999 RMK A01 T03290149  RH  034%=      5-min Rain = 0
KCO2 120141Z 14006KT 33/15 A2999 RMK A01 T03280149  RH  034%=      5-min Rain = 0
KCO2 120142Z 14005KT 33/15 A2999 RMK A01 T03280149  RH  034%=      5-min Rain = 0
KCO2 120143Z 14006KT 33/15 A2999 RMK A01 T03270150  RH  034%=      5-min Rain = 0
KCO2 120144Z 14006KT 33/15 A2999 RMK A01 T03270150  RH  034%=      5-min Rain = 0
KCO2 120145Z 14006KT 33/15 A2999 RMK A01 T03260149  RH  034%=      5-min Rain = 0
KCO2 120146Z 14006KT 33/15 A2999 RMK A01 T03260149  RH  034%=      5-min Rain = 0
KCO2 120147Z 14007KT 33/15 A2999 RMK A01 T03260149  RH  034%=      5-min Rain = 0
KCO2 120148Z 14006KT 33/15 A30 RMK A01 T03260149  RH  034%=      5-min Rain = 0
KCO2 120149Z 14006KT 33/15 A30 RMK A01 T03260149  RH  034%=      5-min Rain = 0
KCO2 120150Z 14006KT 33/15 A30 RMK A01 T03260149  RH  034%=      5-min Rain = 0
KCO2 120151Z 14006KT 33/15 A30 RMK A01 T03260149  RH  034%=      5-min Rain = 0
KCO2 120152Z 14006KT 33/15 A2999 RMK A01 T03260150  RH  035%=      5-min Rain = 0
KCO2 120153Z 14006KT 33/15 A2999 RMK A01 T03250150  RH  035%=      5-min Rain = 0
KCO2 120154Z 14006KT 33/15 A2999 RMK A01 T03250150  RH  035%=      5-min Rain = 0
KCO2 120155Z 14006KT 32/15 A2999 RMK A01 T03240150  RH  035%=      5-min Rain = 0
KCO2 120156Z 13005KT 32/15 A2999 RMK A01 T03230150  RH  035%=      5-min Rain = 0
KCO2 120157Z 14005KT 32/15 A2999 RMK A01 T03230150  RH  035%=      5-min Rain = 0
KCO2 120158Z 13006KT 32/15 A2999 RMK A01 T03220149  RH  035%=      5-min Rain = 0
KCO2 120159Z 14006KT 32/15 A2999 RMK A01 T03210149  RH  035%=      5-min Rain = 0
KCO2 120200Z 14005KT 32/15 A2999 RMK A01 T03210150  RH  036%=      5-min Rain = 0
KCO2 120201Z 14005KT 32/15 A2999 RMK A01 T03200149  RH  036%=      5-min Rain = 0
KCO2 120202Z 14006KT 32/15 A2999 RMK A01 T03190150  RH  036%=      5-min Rain = 0
KCO2 120203Z 14005KT 32/15 A2999 RMK A01 T03190150  RH  036%=      5-min Rain = 0
KCO2 120204Z 14005KT 32/15 A30 RMK A01 T03180150  RH  036%=      5-min Rain = 0
KCO2 120205Z 14006KT 32/15 A30 RMK A01 T03180150  RH  036%=      5-min Rain = 0
KCO2 120206Z 14006KT 32/15 A30 RMK A01 T03170150  RH  036%=      5-min Rain = 0
KCO2 120207Z 13005KT 32/15 A30 RMK A01 T03170150  RH  036%=      5-min Rain = 0
KCO2 120208Z 14006KT 32/15 A30 RMK A01 T03170150  RH  037%=      5-min Rain = 0
KCO2 120209Z 14006KT 32/15 A30 RMK A01 T03160150  RH  037%=      5-min Rain = 0
KCO2 120210Z 14006KT 32/15 A30 RMK A01 T03160151  RH  037%=      5-min Rain = 0
KCO2 120211Z 14005KT 32/15 A30 RMK A01 T03150150  RH  037%=      5-min Rain = 0
KCO2 120212Z 14005KT 32/15 A30 RMK A01 T03150150  RH  037%=      5-min Rain = 0
KCO2 120213Z 14005KT 31/15 A30 RMK A01 T03140150  RH  037%=      5-min Rain = 0
KCO2 120214Z 14005KT 31/15 A30 RMK A01 T03140151  RH  037%=      5-min Rain = 0
KCO2 120215Z 14005KT 31/15 A30 RMK A01 T03140151  RH  037%=      5-min Rain = 0
KCO2 120216Z 14005KT 31/15 A30 RMK A01 T03140151  RH  037%=      5-min Rain = 0
KCO2 120217Z 14005KT 31/15 A30 RMK A01 T03130151  RH  037%=      5-min Rain = 0
KCO2 120218Z 14005KT 31/15 A30 RMK A01 T03130151  RH  037%=      5-min Rain = 0
KCO2 120219Z 14005KT 31/15 A30 RMK A01 T03140151  RH  037%=      5-min Rain = 0
KCO2 120220Z 14005KT 31/15 A30 RMK A01 T03130151  RH  037%=      5-min Rain = 0
KCO2 120221Z 14005KT 31/15 A30 RMK A01 T03130151  RH  038%=      5-min Rain = 0
KCO2 120222Z 14005KT 31/15 A3001 RMK A01 T03120151  RH  038%=      5-min Rain = 0
KCO2 120223Z 14005KT 31/15 A3001 RMK A01 T03120151  RH  038%=      5-min Rain = 0
KCO2 120224Z 14005KT 31/15 A3001 RMK A01 T03120151  RH  038%=      5-min Rain = 0
KCO2 120225Z 14005KT 31/15 A3001 RMK A01 T03120151  RH  038%=      5-min Rain = 0
KCO2 120226Z 14005KT 31/15 A3001 RMK A01 T03110152  RH  038%=      5-min Rain = 0
KCO2 120227Z 14004KT 31/15 A3001 RMK A01 T03110152  RH  038%=      5-min Rain = 0
KCO2 120228Z 14005KT 31/15 A3001 RMK A01 T03100152  RH  038%=      5-min Rain = 0
KCO2 120229Z 14004KT 31/15 A3001 RMK A01 T03090152  RH  038%=      5-min Rain = 0
KCO2 120230Z 14004KT 31/15 A3001 RMK A01 T03090152  RH  039%=      5-min Rain = 0
KCO2 120231Z 14004KT 31/15 A3001 RMK A01 T03080152  RH  039%=      5-min Rain = 0
KCO2 120232Z 14004KT 31/15 A3001 RMK A01 T03080152  RH  039%=      5-min Rain = 0
KCO2 120233Z 14004KT 31/15 A3001 RMK A01 T03070152  RH  039%=      5-min Rain = 0
KCO2 120234Z 14004KT 31/15 A3001 RMK A01 T03070152  RH  039%=      5-min Rain = 0
KCO2 120235Z 14004KT 31/15 A3002 RMK A01 T03060153  RH  039%=      5-min Rain = 0
KCO2 120236Z 14004KT 31/15 A3002 RMK A01 T03050152  RH  039%=      5-min Rain = 0
KCO2 120237Z 14004KT 31/15 A3002 RMK A01 T03050153  RH  040%=      5-min Rain = 0
KCO2 120238Z 14004KT 30/15 A3002 RMK A01 T03040153  RH  040%=      5-min Rain = 0
KCO2 120239Z 15004KT 30/15 A3002 RMK A01 T03040153  RH  040%=      5-min Rain = 0
KCO2 120240Z 15005KT 30/15 A3002 RMK A01 T03030153  RH  040%=      5-min Rain = 0
KCO2 120241Z 15004KT 30/15 A3002 RMK A01 T03030153  RH  040%=      5-min Rain = 0
KCO2 120242Z 14004KT 30/15 A3002 RMK A01 T03030153  RH  040%=      5-min Rain = 0
KCO2 120243Z 14004KT 30/15 A3002 RMK A01 T03020153  RH  040%=      5-min Rain = 0
KCO2 120244Z 14004KT 30/15 A3002 RMK A01 T03010153  RH  041%=      5-min Rain = 0
KCO2 120245Z 13004KT 30/15 A3002 RMK A01 T03010154  RH  041%=      5-min Rain = 0
KCO2 120246Z 13004KT 30/15 A3002 RMK A01 T03000154  RH  041%=      5-min Rain = 0
KCO2 120247Z 13004KT 30/15 A3002 RMK A01 T03000154  RH  041%=      5-min Rain = 0
KCO2 120248Z 12004KT 30/15 A3002 RMK A01 T03000154  RH  041%=      5-min Rain = 0
KCO2 120249Z 11003KT 30/16 A3002 RMK A01 T03000155  RH  041%=      5-min Rain = 0
KCO2 120250Z 12004KT 30/15 A3002 RMK A01 T03000154  RH  041%=      5-min Rain = 0
KCO2 120251Z 13004KT 30/15 A3002 RMK A01 T03000154  RH  041%=      5-min Rain = 0
KCO2 120252Z 12004KT 30/15 A3002 RMK A01 T03000154  RH  041%=      5-min Rain = 0
KCO2 120253Z 12004KT 30/15 A3002 RMK A01 T03000154  RH  041%=      5-min Rain = 0
KCO2 120254Z 10004KT 30/15 A3002 RMK A01 T02990154  RH  041%=      5-min Rain = 0
KCO2 120255Z 10005KT 30/15 A3002 RMK A01 T02990154  RH  041%=      5-min Rain = 0
KCO2 120256Z 10005KT 30/15 A3002 RMK A01 T02990154  RH  041%=      5-min Rain = 0
KCO2 120257Z 10006KT 30/15 A3002 RMK A01 T02990154  RH  041%=      5-min Rain = 0
KCO2 120258Z 12006KT 30/15 A3002 RMK A01 T02990153  RH  041%=      5-min Rain = 0
KCO2 120259Z 12006KT 30/15 A3002 RMK A01 T03000153  RH  041%=      5-min Rain = 0
KCO2 120300Z 12006KT 30/15 A3002 RMK A01 T03010152  RH  041%=      5-min Rain = 0
KCO2 120301Z 13006KT 30/15 A3002 RMK A01 T03010152  RH  040%=      5-min Rain = 0
KCO2 120302Z 13005KT 30/15 A3002 RMK A01 T03020152  RH  040%=      5-min Rain = 0
KCO2 120303Z 13005KT 30/15 A3002 RMK A01 T03030152  RH  040%=      5-min Rain = 0
KCO2 120304Z 13005KT 30/15 A3003 RMK A01 T03040152  RH  040%=      5-min Rain = 0
KCO2 120305Z 13005KT 30/15 A3003 RMK A01 T03040152  RH  040%=      5-min Rain = 0
KCO2 120306Z 12005KT 30/15 A3003 RMK A01 T03040152  RH  040%=      5-min Rain = 0
KCO2 120307Z 12005KT 30/15 A3003 RMK A01 T03030153  RH  040%=      5-min Rain = 0
KCO2 120308Z 12005KT 30/15 A3003 RMK A01 T03030153  RH  040%=      5-min Rain = 0
KCO2 120309Z 12005KT 30/15 A3003 RMK A01 T03030152  RH  040%=      5-min Rain = 0
KCO2 120310Z 12005KT 30/15 A3003 RMK A01 T03030150  RH  040%=      5-min Rain = 0
KCO2 120311Z 12004KT 30/15 A3003 RMK A01 T03040151  RH  039%=      5-min Rain = 0
KCO2 120312Z 12005KT 30/15 A3003 RMK A01 T03040151  RH  039%=      5-min Rain = 0
KCO2 120313Z 12004KT 30/15 A3003 RMK A01 T03040151  RH  039%=      5-min Rain = 0
KCO2 120314Z 13004KT 30/15 A3003 RMK A01 T03040151  RH  039%=      5-min Rain = 0
KCO2 120315Z 12004KT 30/15 A3003 RMK A01 T03040150  RH  039%=      5-min Rain = 0
KCO2 120316Z 13004KT 31/15 A3003 RMK A01 T03050150  RH  039%=      5-min Rain = 0
KCO2 120317Z 13004KT 31/15 A3003 RMK A01 T03050150  RH  039%=      5-min Rain = 0
KCO2 120318Z 13004KT 31/15 A3003 RMK A01 T03050151  RH  039%=      5-min Rain = 0
KCO2 120319Z 13004KT 31/15 A3003 RMK A01 T03050151  RH  039%=      5-min Rain = 0
KCO2 120320Z 13005KT 31/15 A3003 RMK A01 T03050151  RH  039%=      5-min Rain = 0
KCO2 120321Z 13005KT 30/15 A3003 RMK A01 T03040151  RH  039%=      5-min Rain = 0
KCO2 120322Z 12005KT 30/15 A3003 RMK A01 T03040151  RH  039%=      5-min Rain = 0
KCO2 120323Z 13005KT 30/15 A3004 RMK A01 T03040151  RH  040%=      5-min Rain = 0
KCO2 120324Z 13005KT 30/15 A3004 RMK A01 T03030151  RH  040%=      5-min Rain = 0
KCO2 120325Z 12004KT 30/15 A3004 RMK A01 T03030151  RH  040%=      5-min Rain = 0
KCO2 120326Z 12005KT 30/15 A3004 RMK A01 T03030151  RH  040%=      5-min Rain = 0
KCO2 120327Z 12005KT 30/15 A3004 RMK A01 T03030151  RH  040%=      5-min Rain = 0
KCO2 120328Z 12005KT 30/15 A3004 RMK A01 T03020150  RH  040%=      5-min Rain = 0
KCO2 120329Z 12004KT 30/15 A3004 RMK A01 T03020151  RH  040%=      5-min Rain = 0
KCO2 120330Z 13005KT 30/15 A3004 RMK A01 T03020150  RH  040%=      5-min Rain = 0
KCO2 120331Z 13005KT 30/15 A3004 RMK A01 T03020150  RH  040%=      5-min Rain = 0
KCO2 120332Z 13004KT 30/15 A3004 RMK A01 T03020150  RH  040%=      5-min Rain = 0
KCO2 120333Z 13005KT 30/15 A3004 RMK A01 T03020150  RH  040%=      5-min Rain = 0
KCO2 120334Z 13005KT 30/15 A3004 RMK A01 T03010150  RH  040%=      5-min Rain = 0
KCO2 120335Z 13005KT 30/15 A3004 RMK A01 T03010149  RH  040%=      5-min Rain = 0
KCO2 120336Z 13005KT 30/15 A3004 RMK A01 T03020149  RH  040%=      5-min Rain = 0
KCO2 120337Z 13004KT 30/15 A3004 RMK A01 T03010149  RH  040%=      5-min Rain = 0
KCO2 120338Z 13005KT 30/15 A3004 RMK A01 T03010149  RH  040%=      5-min Rain = 0
KCO2 120339Z 13005KT 30/15 A3004 RMK A01 T03010149  RH  040%=      5-min Rain = 0
KCO2 120340Z 13005KT 30/15 A3004 RMK A01 T03000149  RH  040%=      5-min Rain = 0
KCO2 120341Z 13004KT 30/15 A3004 RMK A01 T03000149  RH  040%=      5-min Rain = 0
KCO2 120342Z 13004KT 30/15 A3004 RMK A01 T03000150  RH  040%=      5-min Rain = 0
KCO2 120343Z 13004KT 30/15 A3004 RMK A01 T02990149  RH  040%=      5-min Rain = 0
KCO2 120344Z 14004KT 30/15 A3004 RMK A01 T02990149  RH  040%=      5-min Rain = 0
KCO2 120345Z 14004KT 30/15 A3004 RMK A01 T02980149  RH  040%=      5-min Rain = 0
KCO2 120346Z 13004KT 30/15 A3004 RMK A01 T02970149  RH  041%=      5-min Rain = 0
KCO2 120347Z 13004KT 30/15 A3004 RMK A01 T02960150  RH  041%=      5-min Rain = 0
KCO2 120348Z 14004KT 30/15 A3004 RMK A01 T02960149  RH  041%=      5-min Rain = 0
KCO2 120349Z 14004KT 30/15 A3004 RMK A01 T02950150  RH  041%=      5-min Rain = 0
KCO2 120350Z 14004KT 30/15 A3004 RMK A01 T02950150  RH  041%=      5-min Rain = 0
KCO2 120351Z 14004KT 29/15 A3004 RMK A01 T02940150  RH  041%=      5-min Rain = 0
KCO2 120352Z 13004KT 29/15 A3004 RMK A01 T02930150  RH  042%=      5-min Rain = 0
KCO2 120353Z 14004KT 29/15 A3004 RMK A01 T02920149  RH  042%=      5-min Rain = 0
KCO2 120354Z 14005KT 29/15 A3005 RMK A01 T02920150  RH  042%=      5-min Rain = 0
KCO2 120355Z 13004KT 29/15 A3005 RMK A01 T02920150  RH  042%=      5-min Rain = 0
KCO2 120356Z 14004KT 29/15 A3005 RMK A01 T02910150  RH  042%=      5-min Rain = 0
KCO2 120357Z 14004KT 29/15 A3005 RMK A01 T02910150  RH  042%=      5-min Rain = 0
KCO2 120358Z 14005KT 29/15 A3005 RMK A01 T02900150  RH  042%=      5-min Rain = 0
KCO2 120359Z 14005KT 29/15 A3005 RMK A01 T02900150  RH  043%=      5-min Rain = 0
KCO2 120400Z 14005KT 29/15 A3005 RMK A01 T02890149  RH  043%=      5-min Rain = 0
KCO2 120401Z 14005KT 29/15 A3005 RMK A01 T02890149  RH  043%=      5-min Rain = 0
KCO2 120402Z 14005KT 29/15 A3004 RMK A01 T02880150  RH  043%=      5-min Rain = 0
KCO2 120403Z 14005KT 29/15 A3004 RMK A01 T02870150  RH  043%=      5-min Rain = 0
KCO2 120404Z 14004KT 29/15 A3004 RMK A01 T02860150  RH  043%=      5-min Rain = 0
KCO2 120405Z 15004KT 29/15 A3004 RMK A01 T02860150  RH  044%=      5-min Rain = 0
KCO2 120406Z 15004KT 29/15 A3004 RMK A01 T02850150  RH  044%=      5-min Rain = 0
KCO2 120407Z 15004KT 28/15 A3004 RMK A01 T02840150  RH  044%=      5-min Rain = 0
KCO2 120408Z 15004KT 28/15 A3004 RMK A01 T02830150  RH  044%=      5-min Rain = 0
KCO2 120409Z 15004KT 28/15 A3004 RMK A01 T02820150  RH  044%=      5-min Rain = 0
KCO2 120410Z 15004KT 28/15 A3004 RMK A01 T02820150  RH  045%=      5-min Rain = 0
KCO2 120411Z 15005KT 28/15 A3004 RMK A01 T02810150  RH  045%=      5-min Rain = 0
KCO2 120412Z 15005KT 28/15 A3004 RMK A01 T02800150  RH  045%=      5-min Rain = 0
KCO2 120413Z 15005KT 28/15 A3004 RMK A01 T02790150  RH  045%=      5-min Rain = 0
KCO2 120414Z 15005KT 28/15 A3005 RMK A01 T02790150  RH  045%=      5-min Rain = 0
KCO2 120415Z 15005KT 28/15 A3005 RMK A01 T02780149  RH  046%=      5-min Rain = 0
KCO2 120416Z 15005KT 28/15 A3005 RMK A01 T02770150  RH  046%=      5-min Rain = 0
KCO2 120417Z 15005KT 28/15 A3005 RMK A01 T02760150  RH  046%=      5-min Rain = 0
KCO2 120418Z 15005KT 28/15 A3005 RMK A01 T02760150  RH  046%=      5-min Rain = 0
KCO2 120419Z 15004KT 28/15 A3005 RMK A01 T02750150  RH  046%=      5-min Rain = 0
KCO2 120420Z 15004KT 28/15 A3005 RMK A01 T02750151  RH  046%=      5-min Rain = 0
KCO2 120421Z 15004KT 28/15 A3005 RMK A01 T02750150  RH  046%=      5-min Rain = 0
KCO2 120422Z 15004KT 28/15 A3005 RMK A01 T02750151  RH  047%=      5-min Rain = 0
KCO2 120423Z 15004KT 27/15 A3005 RMK A01 T02740150  RH  047%=      5-min Rain = 0
KCO2 120424Z 15004KT 27/15 A3005 RMK A01 T02740151  RH  047%=      5-min Rain = 0
KCO2 120425Z 14005KT 27/15 A3005 RMK A01 T02740151  RH  047%=      5-min Rain = 0
KCO2 120426Z 15004KT 27/15 A3005 RMK A01 T02740151  RH  047%=      5-min Rain = 0
KCO2 120427Z 15005KT 27/15 A3005 RMK A01 T02730151  RH  047%=      5-min Rain = 0
KCO2 120428Z 14005KT 27/15 A3005 RMK A01 T02730151  RH  047%=      5-min Rain = 0
KCO2 120429Z 14005KT 27/15 A3005 RMK A01 T02730151  RH  047%=      5-min Rain = 0
KCO2 120430Z 14005KT 27/15 A3005 RMK A01 T02720151  RH  047%=      5-min Rain = 0
KCO2 120431Z 14006KT 27/15 A3005 RMK A01 T02720151  RH  047%=      5-min Rain = 0
KCO2 120432Z 14005KT 27/15 A3005 RMK A01 T02720150  RH  047%=      5-min Rain = 0
KCO2 120433Z 14006KT 27/15 A3005 RMK A01 T02720150  RH  047%=      5-min Rain = 0
KCO2 120434Z 14006KT 27/15 A3005 RMK A01 T02720150  RH  047%=      5-min Rain = 0
KCO2 120435Z 15006KT 27/15 A3005 RMK A01 T02720150  RH  047%=      5-min Rain = 0
KCO2 120436Z 15006KT 27/15 A3005 RMK A01 T02720150  RH  047%=      5-min Rain = 0
KCO2 120437Z 15006KT 27/15 A3005 RMK A01 T02720150  RH  047%=      5-min Rain = 0
KCO2 120438Z 15006KT 27/15 A3005 RMK A01 T02720150  RH  047%=      5-min Rain = 0
KCO2 120439Z 15006KT 27/15 A3005 RMK A01 T02720149  RH  047%=      5-min Rain = 0
KCO2 120440Z 16006KT 27/15 A3005 RMK A01 T02730150  RH  047%=      5-min Rain = 0
KCO2 120441Z 16006KT 27/15 A3005 RMK A01 T02730150  RH  047%=      5-min Rain = 0
KCO2 120442Z 16005KT 27/15 A3005 RMK A01 T02730149  RH  047%=      5-min Rain = 0
KCO2 120443Z 16005KT 27/15 A3005 RMK A01 T02740150  RH  047%=      5-min Rain = 0
KCO2 120444Z 16005KT 27/15 A3005 RMK A01 T02740150  RH  047%=      5-min Rain = 0
KCO2 120445Z 16005KT 27/15 A3005 RMK A01 T02740150  RH  047%=      5-min Rain = 0
KCO2 120446Z 15005KT 27/15 A3005 RMK A01 T02730150  RH  047%=      5-min Rain = 0
KCO2 120447Z 15006KT 27/15 A3005 RMK A01 T02730150  RH  047%=      5-min Rain = 0
KCO2 120448Z 15006KT 27/15 A3005 RMK A01 T02720150  RH  047%=      5-min Rain = 0
KCO2 120449Z 15006KT 27/15 A3005 RMK A01 T02720150  RH  047%=      5-min Rain = 0
KCO2 120450Z 15006KT 27/15 A3005 RMK A01 T02720149  RH  047%=      5-min Rain = 0
KCO2 120451Z 15007KT 27/15 A3005 RMK A01 T02730149  RH  047%=      5-min Rain = 0
KCO2 120452Z 15007KT 27/15 A3005 RMK A01 T02740149  RH  046%=      5-min Rain = 0
KCO2 120453Z 15007KT 27/15 A3005 RMK A01 T02740149  RH  046%=      5-min Rain = 0
KCO2 120454Z 15007KT 28/15 A3005 RMK A01 T02750149  RH  046%=      5-min Rain = 0
KCO2 120455Z 14006KT 28/15 A3005 RMK A01 T02750148  RH  046%=      5-min Rain = 0
KCO2 120456Z 14007KT 28/15 A3005 RMK A01 T02750148  RH  046%=      5-min Rain = 0
KCO2 120457Z 14007KT 28/15 A3005 RMK A01 T02760149  RH  046%=      5-min Rain = 0
KCO2 120458Z 14007KT 28/15 A3005 RMK A01 T02770149  RH  045%=      5-min Rain = 0
KCO2 120459Z 14007KT 28/15 A3005 RMK A01 T02780149  RH  045%=      5-min Rain = 0
KCO2 120500Z 14006KT 28/15 A3005 RMK A01 T02780149  RH  045%=      5-min Rain = 0

Page generated in 0.0569 seconds.